<?xml version="1.0" encoding="UTF-8" standalone="no" ?>
<gpx xmlns="http://www.topografix.com/GPX/1/1" xmlns:xsi="http://www.w3.org/2001/XMLSchema-instance" xsi:schemaLocation="http://www.topografix.com/GPX/1/1 http://www.topografix.com/GPX/1/1/gpx.xsd" version="1.1" creator="VisuGPX - https://www.visugpx.com">
  <metadata>
    <name>Breche de la portetta</name>
    <desc><![CDATA[Le monde de la verticalité]]></desc>
  </metadata>
  <trk>
    <name><![CDATA[portetta]]></name>
    <trkseg>
      <trkpt lat="45.406" lon="6.66304">
        <ele>1827.711908</ele>
        <time>2010-08-09T08:08:04Z</time>
      </trkpt>
      <trkpt lat="45.406" lon="6.66295">
        <ele>1805.837219</ele>
        <time>2010-08-09T08:08:24Z</time>
      </trkpt>
      <trkpt lat="45.40608" lon="6.66289">
        <ele>1794.161556</ele>
        <time>2010-08-09T08:08:44Z</time>
      </trkpt>
      <trkpt lat="45.40611" lon="6.66305">
        <ele>1793.773952</ele>
        <time>2010-08-09T08:09:04Z</time>
      </trkpt>
      <trkpt lat="45.40605" lon="6.663">
        <ele>1807.631557</ele>
        <time>2010-08-09T08:09:24Z</time>
      </trkpt>
      <trkpt lat="45.40601" lon="6.66285">
        <ele>1817.254582</ele>
        <time>2010-08-09T08:09:44Z</time>
      </trkpt>
      <trkpt lat="45.40606" lon="6.66292">
        <ele>1785.838332</ele>
        <time>2010-08-09T08:10:04Z</time>
      </trkpt>
      <trkpt lat="45.40609" lon="6.66305">
        <ele>1762.573914</ele>
        <time>2010-08-09T08:10:24Z</time>
      </trkpt>
      <trkpt lat="45.40605" lon="6.66309">
        <ele>1761.364569</ele>
        <time>2010-08-09T08:10:44Z</time>
      </trkpt>
      <trkpt lat="45.40605" lon="6.66305">
        <ele>1765.348489</ele>
        <time>2010-08-09T08:11:21Z</time>
      </trkpt>
      <trkpt lat="45.40604" lon="6.663">
        <ele>1770.727081</ele>
        <time>2010-08-09T08:11:41Z</time>
      </trkpt>
      <trkpt lat="45.40603" lon="6.66305">
        <ele>1775.266471</ele>
        <time>2010-08-09T08:12:04Z</time>
      </trkpt>
      <trkpt lat="45.40603" lon="6.66302">
        <ele>1780.043954</ele>
        <time>2010-08-09T08:12:24Z</time>
      </trkpt>
      <trkpt lat="45.40605" lon="6.66307">
        <ele>1782.506102</ele>
        <time>2010-08-09T08:12:48Z</time>
      </trkpt>
      <trkpt lat="45.40601" lon="6.66307">
        <ele>1785.362143</ele>
        <time>2010-08-09T08:13:09Z</time>
      </trkpt>
      <trkpt lat="45.4059" lon="6.66326">
        <ele>1792.185204</ele>
        <time>2010-08-09T08:13:29Z</time>
      </trkpt>
      <trkpt lat="45.40572" lon="6.66342">
        <ele>1786.784021</ele>
        <time>2010-08-09T08:13:49Z</time>
      </trkpt>
      <trkpt lat="45.40544" lon="6.66368">
        <ele>1791.878941</ele>
        <time>2010-08-09T08:14:09Z</time>
      </trkpt>
      <trkpt lat="45.40534" lon="6.66394">
        <ele>1791.379836</ele>
        <time>2010-08-09T08:14:29Z</time>
      </trkpt>
      <trkpt lat="45.40519" lon="6.66416">
        <ele>1798.403392</ele>
        <time>2010-08-09T08:14:49Z</time>
      </trkpt>
      <trkpt lat="45.40502" lon="6.66435">
        <ele>1803.839904</ele>
        <time>2010-08-09T08:15:09Z</time>
      </trkpt>
      <trkpt lat="45.40473" lon="6.66451">
        <ele>1814.685398</ele>
        <time>2010-08-09T08:15:29Z</time>
      </trkpt>
      <trkpt lat="45.40452" lon="6.66455">
        <ele>1823.395183</ele>
        <time>2010-08-09T08:15:49Z</time>
      </trkpt>
      <trkpt lat="45.40437" lon="6.66464">
        <ele>1818.944666</ele>
        <time>2010-08-09T08:16:09Z</time>
      </trkpt>
      <trkpt lat="45.40424" lon="6.66477">
        <ele>1818.284324</ele>
        <time>2010-08-09T08:16:29Z</time>
      </trkpt>
      <trkpt lat="45.40405" lon="6.66493">
        <ele>1813.581321</ele>
        <time>2010-08-09T08:16:49Z</time>
      </trkpt>
      <trkpt lat="45.40382" lon="6.66523">
        <ele>1814.671045</ele>
        <time>2010-08-09T08:17:09Z</time>
      </trkpt>
      <trkpt lat="45.40355" lon="6.66556">
        <ele>1825.90884</ele>
        <time>2010-08-09T08:17:29Z</time>
      </trkpt>
      <trkpt lat="45.40349" lon="6.66583">
        <ele>1818.407518</ele>
        <time>2010-08-09T08:17:49Z</time>
      </trkpt>
      <trkpt lat="45.40349" lon="6.66618">
        <ele>1809.347321</ele>
        <time>2010-08-09T08:18:09Z</time>
      </trkpt>
      <trkpt lat="45.4034" lon="6.66652">
        <ele>1806.534099</ele>
        <time>2010-08-09T08:18:29Z</time>
      </trkpt>
      <trkpt lat="45.40329" lon="6.66685">
        <ele>1799.396497</ele>
        <time>2010-08-09T08:18:49Z</time>
      </trkpt>
      <trkpt lat="45.40319" lon="6.6672">
        <ele>1801.575997</ele>
        <time>2010-08-09T08:19:09Z</time>
      </trkpt>
      <trkpt lat="45.40317" lon="6.66771">
        <ele>1792.085107</ele>
        <time>2010-08-09T08:19:29Z</time>
      </trkpt>
      <trkpt lat="45.40304" lon="6.668">
        <ele>1793.212047</ele>
        <time>2010-08-09T08:19:49Z</time>
      </trkpt>
      <trkpt lat="45.40292" lon="6.66826">
        <ele>1804.042037</ele>
        <time>2010-08-09T08:20:09Z</time>
      </trkpt>
      <trkpt lat="45.40292" lon="6.66866">
        <ele>1797.430306</ele>
        <time>2010-08-09T08:20:29Z</time>
      </trkpt>
      <trkpt lat="45.40288" lon="6.66899">
        <ele>1802.354427</ele>
        <time>2010-08-09T08:20:49Z</time>
      </trkpt>
      <trkpt lat="45.40274" lon="6.66947">
        <ele>1803.992895</ele>
        <time>2010-08-09T08:21:09Z</time>
      </trkpt>
      <trkpt lat="45.40252" lon="6.66987">
        <ele>1817.820575</ele>
        <time>2010-08-09T08:21:29Z</time>
      </trkpt>
      <trkpt lat="45.40239" lon="6.67003">
        <ele>1818.815432</ele>
        <time>2010-08-09T08:21:49Z</time>
      </trkpt>
      <trkpt lat="45.40231" lon="6.67025">
        <ele>1814.572278</ele>
        <time>2010-08-09T08:22:09Z</time>
      </trkpt>
      <trkpt lat="45.40219" lon="6.67056">
        <ele>1813.674904</ele>
        <time>2010-08-09T08:22:29Z</time>
      </trkpt>
      <trkpt lat="45.40192" lon="6.67121">
        <ele>1802.845701</ele>
        <time>2010-08-09T08:22:49Z</time>
      </trkpt>
      <trkpt lat="45.40169" lon="6.67169">
        <ele>1812.920887</ele>
        <time>2010-08-09T08:23:09Z</time>
      </trkpt>
      <trkpt lat="45.40159" lon="6.67197">
        <ele>1821.837803</ele>
        <time>2010-08-09T08:23:29Z</time>
      </trkpt>
      <trkpt lat="45.40151" lon="6.67228">
        <ele>1813.856407</ele>
        <time>2010-08-09T08:23:49Z</time>
      </trkpt>
      <trkpt lat="45.40146" lon="6.6725">
        <ele>1810.971043</ele>
        <time>2010-08-09T08:24:09Z</time>
      </trkpt>
      <trkpt lat="45.40141" lon="6.67304">
        <ele>1793.857496</ele>
        <time>2010-08-09T08:24:29Z</time>
      </trkpt>
      <trkpt lat="45.40126" lon="6.67336">
        <ele>1791.604003</ele>
        <time>2010-08-09T08:24:49Z</time>
      </trkpt>
      <trkpt lat="45.40108" lon="6.67375">
        <ele>1796.924973</ele>
        <time>2010-08-09T08:25:09Z</time>
      </trkpt>
      <trkpt lat="45.40097" lon="6.67406">
        <ele>1810.931421</ele>
        <time>2010-08-09T08:25:29Z</time>
      </trkpt>
      <trkpt lat="45.4009" lon="6.67433">
        <ele>1827.541306</ele>
        <time>2010-08-09T08:25:49Z</time>
      </trkpt>
      <trkpt lat="45.40078" lon="6.67451">
        <ele>1836.474297</ele>
        <time>2010-08-09T08:26:09Z</time>
      </trkpt>
      <trkpt lat="45.40056" lon="6.67461">
        <ele>1843.39108</ele>
        <time>2010-08-09T08:26:29Z</time>
      </trkpt>
      <trkpt lat="45.40038" lon="6.67484">
        <ele>1849.758599</ele>
        <time>2010-08-09T08:26:49Z</time>
      </trkpt>
      <trkpt lat="45.40027" lon="6.67483">
        <ele>1842.594376</ele>
        <time>2010-08-09T08:27:09Z</time>
      </trkpt>
      <trkpt lat="45.40005" lon="6.67492">
        <ele>1840.958636</ele>
        <time>2010-08-09T08:27:29Z</time>
      </trkpt>
      <trkpt lat="45.39978" lon="6.67501">
        <ele>1840.688541</ele>
        <time>2010-08-09T08:27:49Z</time>
      </trkpt>
      <trkpt lat="45.39948" lon="6.67494">
        <ele>1837.273882</ele>
        <time>2010-08-09T08:28:09Z</time>
      </trkpt>
      <trkpt lat="45.39947" lon="6.67501">
        <ele>1839.870401</ele>
        <time>2010-08-09T08:28:29Z</time>
      </trkpt>
      <trkpt lat="45.39934" lon="6.6748">
        <ele>1836.37854</ele>
        <time>2010-08-09T08:28:49Z</time>
      </trkpt>
      <trkpt lat="45.39932" lon="6.67472">
        <ele>1837.26904</ele>
        <time>2010-08-09T08:29:09Z</time>
      </trkpt>
      <trkpt lat="45.39894" lon="6.6747">
        <ele>1831.972045</ele>
        <time>2010-08-09T08:29:29Z</time>
      </trkpt>
      <trkpt lat="45.39859" lon="6.67466">
        <ele>1830.168368</ele>
        <time>2010-08-09T08:29:49Z</time>
      </trkpt>
      <trkpt lat="45.39821" lon="6.67461">
        <ele>1821.889855</ele>
        <time>2010-08-09T08:30:09Z</time>
      </trkpt>
      <trkpt lat="45.39791" lon="6.6746">
        <ele>1818.186794</ele>
        <time>2010-08-09T08:30:29Z</time>
      </trkpt>
      <trkpt lat="45.39766" lon="6.67464">
        <ele>1820.424729</ele>
        <time>2010-08-09T08:30:49Z</time>
      </trkpt>
      <trkpt lat="45.39748" lon="6.67467">
        <ele>1820.547175</ele>
        <time>2010-08-09T08:31:09Z</time>
      </trkpt>
      <trkpt lat="45.39717" lon="6.6748">
        <ele>1831.918142</ele>
        <time>2010-08-09T08:31:29Z</time>
      </trkpt>
      <trkpt lat="45.39685" lon="6.67485">
        <ele>1835.65632</ele>
        <time>2010-08-09T08:31:49Z</time>
      </trkpt>
      <trkpt lat="45.39664" lon="6.67481">
        <ele>1831.099046</ele>
        <time>2010-08-09T08:32:09Z</time>
      </trkpt>
      <trkpt lat="45.39648" lon="6.67477">
        <ele>1831.458668</ele>
        <time>2010-08-09T08:32:29Z</time>
      </trkpt>
      <trkpt lat="45.39624" lon="6.67472">
        <ele>1828.897712</ele>
        <time>2010-08-09T08:32:49Z</time>
      </trkpt>
      <trkpt lat="45.39604" lon="6.67465">
        <ele>1834.769916</ele>
        <time>2010-08-09T08:33:09Z</time>
      </trkpt>
      <trkpt lat="45.39567" lon="6.67461">
        <ele>1826.589457</ele>
        <time>2010-08-09T08:33:29Z</time>
      </trkpt>
      <trkpt lat="45.39522" lon="6.6746">
        <ele>1821.385871</ele>
        <time>2010-08-09T08:33:49Z</time>
      </trkpt>
      <trkpt lat="45.39507" lon="6.67461">
        <ele>1827.027146</ele>
        <time>2010-08-09T08:34:09Z</time>
      </trkpt>
      <trkpt lat="45.39463" lon="6.67458">
        <ele>1825.273262</ele>
        <time>2010-08-09T08:34:29Z</time>
      </trkpt>
      <trkpt lat="45.39438" lon="6.67442">
        <ele>1811.400736</ele>
        <time>2010-08-09T08:34:49Z</time>
      </trkpt>
      <trkpt lat="45.39412" lon="6.67432">
        <ele>1812.016149</ele>
        <time>2010-08-09T08:35:09Z</time>
      </trkpt>
      <trkpt lat="45.39388" lon="6.67415">
        <ele>1812.950063</ele>
        <time>2010-08-09T08:35:29Z</time>
      </trkpt>
      <trkpt lat="45.3938" lon="6.67412">
        <ele>1823.426598</ele>
        <time>2010-08-09T08:35:49Z</time>
      </trkpt>
      <trkpt lat="45.39356" lon="6.67408">
        <ele>1823.069934</ele>
        <time>2010-08-09T08:36:09Z</time>
      </trkpt>
      <trkpt lat="45.39322" lon="6.67386">
        <ele>1817.212342</ele>
        <time>2010-08-09T08:36:29Z</time>
      </trkpt>
      <trkpt lat="45.39284" lon="6.67368">
        <ele>1818.781277</ele>
        <time>2010-08-09T08:36:49Z</time>
      </trkpt>
      <trkpt lat="45.39253" lon="6.67353">
        <ele>1828.330558</ele>
        <time>2010-08-09T08:37:09Z</time>
      </trkpt>
      <trkpt lat="45.39224" lon="6.67347">
        <ele>1820.706422</ele>
        <time>2010-08-09T08:37:29Z</time>
      </trkpt>
      <trkpt lat="45.39195" lon="6.67353">
        <ele>1836.626949</ele>
        <time>2010-08-09T08:37:49Z</time>
      </trkpt>
      <trkpt lat="45.3917" lon="6.67352">
        <ele>1842.139262</ele>
        <time>2010-08-09T08:38:09Z</time>
      </trkpt>
      <trkpt lat="45.39159" lon="6.67343">
        <ele>1828.753368</ele>
        <time>2010-08-09T08:38:29Z</time>
      </trkpt>
      <trkpt lat="45.39126" lon="6.67337">
        <ele>1838.162801</ele>
        <time>2010-08-09T08:38:49Z</time>
      </trkpt>
      <trkpt lat="45.39116" lon="6.67334">
        <ele>1846.42241</ele>
        <time>2010-08-09T08:39:09Z</time>
      </trkpt>
      <trkpt lat="45.39097" lon="6.6735">
        <ele>1853.794412</ele>
        <time>2010-08-09T08:39:29Z</time>
      </trkpt>
      <trkpt lat="45.39069" lon="6.67351">
        <ele>1865.776826</ele>
        <time>2010-08-09T08:39:49Z</time>
      </trkpt>
      <trkpt lat="45.39052" lon="6.67356">
        <ele>1890.914611</ele>
        <time>2010-08-09T08:40:09Z</time>
      </trkpt>
      <trkpt lat="45.39006" lon="6.67353">
        <ele>1887.659263</ele>
        <time>2010-08-09T08:40:29Z</time>
      </trkpt>
      <trkpt lat="45.3899" lon="6.6732">
        <ele>1885.499222</ele>
        <time>2010-08-09T08:40:49Z</time>
      </trkpt>
      <trkpt lat="45.38985" lon="6.67297">
        <ele>1880.427631</ele>
        <time>2010-08-09T08:41:09Z</time>
      </trkpt>
      <trkpt lat="45.38976" lon="6.67276">
        <ele>1876.899971</ele>
        <time>2010-08-09T08:41:29Z</time>
      </trkpt>
      <trkpt lat="45.38949" lon="6.67273">
        <ele>1873.764884</ele>
        <time>2010-08-09T08:41:49Z</time>
      </trkpt>
      <trkpt lat="45.38919" lon="6.67262">
        <ele>1904.894465</ele>
        <time>2010-08-09T08:42:09Z</time>
      </trkpt>
      <trkpt lat="45.38892" lon="6.67259">
        <ele>1915.237998</ele>
        <time>2010-08-09T08:42:29Z</time>
      </trkpt>
      <trkpt lat="45.38875" lon="6.67269">
        <ele>1883.205873</ele>
        <time>2010-08-09T08:42:49Z</time>
      </trkpt>
      <trkpt lat="45.38849" lon="6.67261">
        <ele>1881.880576</ele>
        <time>2010-08-09T08:43:09Z</time>
      </trkpt>
      <trkpt lat="45.38826" lon="6.67244">
        <ele>1893.476832</ele>
        <time>2010-08-09T08:43:29Z</time>
      </trkpt>
      <trkpt lat="45.38807" lon="6.67219">
        <ele>1886.059314</ele>
        <time>2010-08-09T08:43:49Z</time>
      </trkpt>
      <trkpt lat="45.38789" lon="6.67213">
        <ele>1879.976154</ele>
        <time>2010-08-09T08:44:09Z</time>
      </trkpt>
      <trkpt lat="45.38763" lon="6.6721">
        <ele>1883.205994</ele>
        <time>2010-08-09T08:44:29Z</time>
      </trkpt>
      <trkpt lat="45.38753" lon="6.67242">
        <ele>1867.535114</ele>
        <time>2010-08-09T08:44:49Z</time>
      </trkpt>
      <trkpt lat="45.38729" lon="6.67243">
        <ele>1871.736122</ele>
        <time>2010-08-09T08:45:09Z</time>
      </trkpt>
      <trkpt lat="45.38699" lon="6.67246">
        <ele>1883.869494</ele>
        <time>2010-08-09T08:45:29Z</time>
      </trkpt>
      <trkpt lat="45.38678" lon="6.67245">
        <ele>1890.13905</ele>
        <time>2010-08-09T08:45:49Z</time>
      </trkpt>
      <trkpt lat="45.38657" lon="6.6725">
        <ele>1886.089979</ele>
        <time>2010-08-09T08:46:09Z</time>
      </trkpt>
      <trkpt lat="45.38637" lon="6.67258">
        <ele>1882.300105</ele>
        <time>2010-08-09T08:46:29Z</time>
      </trkpt>
      <trkpt lat="45.38611" lon="6.67257">
        <ele>1901.279178</ele>
        <time>2010-08-09T08:46:49Z</time>
      </trkpt>
      <trkpt lat="45.38595" lon="6.67241">
        <ele>1903.014645</ele>
        <time>2010-08-09T08:47:09Z</time>
      </trkpt>
      <trkpt lat="45.38567" lon="6.67231">
        <ele>1912.937601</ele>
        <time>2010-08-09T08:47:29Z</time>
      </trkpt>
      <trkpt lat="45.38544" lon="6.67224">
        <ele>1919.482981</ele>
        <time>2010-08-09T08:47:49Z</time>
      </trkpt>
      <trkpt lat="45.3852" lon="6.67219">
        <ele>1926.177407</ele>
        <time>2010-08-09T08:48:09Z</time>
      </trkpt>
      <trkpt lat="45.38504" lon="6.67225">
        <ele>1921.555757</ele>
        <time>2010-08-09T08:48:29Z</time>
      </trkpt>
      <trkpt lat="45.3848" lon="6.6724">
        <ele>1928.776868</ele>
        <time>2010-08-09T08:48:49Z</time>
      </trkpt>
      <trkpt lat="45.3846" lon="6.67246">
        <ele>1930.543748</ele>
        <time>2010-08-09T08:49:09Z</time>
      </trkpt>
      <trkpt lat="45.3845" lon="6.67263">
        <ele>1920.927112</ele>
        <time>2010-08-09T08:49:29Z</time>
      </trkpt>
      <trkpt lat="45.38449" lon="6.67253">
        <ele>1928.798143</ele>
        <time>2010-08-09T08:49:49Z</time>
      </trkpt>
      <trkpt lat="45.38449" lon="6.67249">
        <ele>1924.325045</ele>
        <time>2010-08-09T08:50:09Z</time>
      </trkpt>
      <trkpt lat="45.38451" lon="6.67244">
        <ele>1926.83171</ele>
        <time>2010-08-09T08:51:30Z</time>
      </trkpt>
      <trkpt lat="45.38436" lon="6.6725">
        <ele>1915.807646</ele>
        <time>2010-08-09T08:51:50Z</time>
      </trkpt>
      <trkpt lat="45.38416" lon="6.67267">
        <ele>1912.589884</ele>
        <time>2010-08-09T08:52:10Z</time>
      </trkpt>
      <trkpt lat="45.38398" lon="6.6728">
        <ele>1914.081725</ele>
        <time>2010-08-09T08:52:30Z</time>
      </trkpt>
      <trkpt lat="45.38386" lon="6.67258">
        <ele>1917.559465</ele>
        <time>2010-08-09T08:52:50Z</time>
      </trkpt>
      <trkpt lat="45.38366" lon="6.67245">
        <ele>1918.088332</ele>
        <time>2010-08-09T08:53:10Z</time>
      </trkpt>
      <trkpt lat="45.38356" lon="6.67268">
        <ele>1920.236945</ele>
        <time>2010-08-09T08:53:30Z</time>
      </trkpt>
      <trkpt lat="45.38348" lon="6.6729">
        <ele>1935.810712</ele>
        <time>2010-08-09T08:53:50Z</time>
      </trkpt>
      <trkpt lat="45.38347" lon="6.67318">
        <ele>1936.908673</ele>
        <time>2010-08-09T08:54:10Z</time>
      </trkpt>
      <trkpt lat="45.3835" lon="6.6732">
        <ele>1944.161697</ele>
        <time>2010-08-09T08:54:30Z</time>
      </trkpt>
      <trkpt lat="45.38356" lon="6.67325">
        <ele>1942.356432</ele>
        <time>2010-08-09T08:54:50Z</time>
      </trkpt>
      <trkpt lat="45.38361" lon="6.67337">
        <ele>1945.269163</ele>
        <time>2010-08-09T08:55:10Z</time>
      </trkpt>
      <trkpt lat="45.38363" lon="6.67352">
        <ele>1949.807743</ele>
        <time>2010-08-09T08:55:30Z</time>
      </trkpt>
      <trkpt lat="45.38363" lon="6.67358">
        <ele>1951.625277</ele>
        <time>2010-08-09T08:55:58Z</time>
      </trkpt>
      <trkpt lat="45.38357" lon="6.67375">
        <ele>1961.879459</ele>
        <time>2010-08-09T08:56:18Z</time>
      </trkpt>
      <trkpt lat="45.38356" lon="6.67369">
        <ele>1967.176423</ele>
        <time>2010-08-09T08:56:38Z</time>
      </trkpt>
      <trkpt lat="45.38361" lon="6.67371">
        <ele>1968.012554</ele>
        <time>2010-08-09T08:58:01Z</time>
      </trkpt>
      <trkpt lat="45.38363" lon="6.67401">
        <ele>1970.726093</ele>
        <time>2010-08-09T08:58:21Z</time>
      </trkpt>
      <trkpt lat="45.38357" lon="6.67419">
        <ele>1968.281319</ele>
        <time>2010-08-09T08:58:41Z</time>
      </trkpt>
      <trkpt lat="45.38351" lon="6.6743">
        <ele>1976.087829</ele>
        <time>2010-08-09T08:59:01Z</time>
      </trkpt>
      <trkpt lat="45.38349" lon="6.67446">
        <ele>1980.665494</ele>
        <time>2010-08-09T08:59:21Z</time>
      </trkpt>
      <trkpt lat="45.38346" lon="6.67449">
        <ele>1984.398384</ele>
        <time>2010-08-09T08:59:41Z</time>
      </trkpt>
      <trkpt lat="45.38342" lon="6.67453">
        <ele>1986.721857</ele>
        <time>2010-08-09T09:00:01Z</time>
      </trkpt>
      <trkpt lat="45.38335" lon="6.67463">
        <ele>1989.492475</ele>
        <time>2010-08-09T09:00:21Z</time>
      </trkpt>
      <trkpt lat="45.38346" lon="6.67473">
        <ele>1994.420211</ele>
        <time>2010-08-09T09:00:41Z</time>
      </trkpt>
      <trkpt lat="45.38334" lon="6.67487">
        <ele>2001.005392</ele>
        <time>2010-08-09T09:01:01Z</time>
      </trkpt>
      <trkpt lat="45.38328" lon="6.67489">
        <ele>1999.688138</ele>
        <time>2010-08-09T09:01:21Z</time>
      </trkpt>
      <trkpt lat="45.38326" lon="6.67494">
        <ele>2004.926336</ele>
        <time>2010-08-09T09:01:41Z</time>
      </trkpt>
      <trkpt lat="45.38318" lon="6.6749">
        <ele>2008.905998</ele>
        <time>2010-08-09T09:02:01Z</time>
      </trkpt>
      <trkpt lat="45.38315" lon="6.67487">
        <ele>2015.131205</ele>
        <time>2010-08-09T09:02:21Z</time>
      </trkpt>
      <trkpt lat="45.38315" lon="6.67494">
        <ele>2015.539403</ele>
        <time>2010-08-09T09:03:35Z</time>
      </trkpt>
      <trkpt lat="45.3831" lon="6.67502">
        <ele>2018.887074</ele>
        <time>2010-08-09T09:03:55Z</time>
      </trkpt>
      <trkpt lat="45.38307" lon="6.67509">
        <ele>2019.348489</ele>
        <time>2010-08-09T09:04:15Z</time>
      </trkpt>
      <trkpt lat="45.38305" lon="6.67515">
        <ele>2019.030666</ele>
        <time>2010-08-09T09:04:35Z</time>
      </trkpt>
      <trkpt lat="45.383" lon="6.67521">
        <ele>2019.382018</ele>
        <time>2010-08-09T09:04:55Z</time>
      </trkpt>
      <trkpt lat="45.38298" lon="6.67522">
        <ele>2024.375311</ele>
        <time>2010-08-09T09:05:15Z</time>
      </trkpt>
      <trkpt lat="45.38294" lon="6.67526">
        <ele>2025.371061</ele>
        <time>2010-08-09T09:05:54Z</time>
      </trkpt>
      <trkpt lat="45.38287" lon="6.67532">
        <ele>2029.224663</ele>
        <time>2010-08-09T09:06:14Z</time>
      </trkpt>
      <trkpt lat="45.38258" lon="6.67538">
        <ele>2044.438693</ele>
        <time>2010-08-09T09:06:34Z</time>
      </trkpt>
      <trkpt lat="45.3825" lon="6.67538">
        <ele>2047.253955</ele>
        <time>2010-08-09T09:06:54Z</time>
      </trkpt>
      <trkpt lat="45.38243" lon="6.67543">
        <ele>2045.3883</ele>
        <time>2010-08-09T09:07:14Z</time>
      </trkpt>
      <trkpt lat="45.38226" lon="6.67549">
        <ele>2053.53415</ele>
        <time>2010-08-09T09:07:34Z</time>
      </trkpt>
      <trkpt lat="45.38222" lon="6.67552">
        <ele>2055.843535</ele>
        <time>2010-08-09T09:07:54Z</time>
      </trkpt>
      <trkpt lat="45.38204" lon="6.67549">
        <ele>2064.101337</ele>
        <time>2010-08-09T09:08:14Z</time>
      </trkpt>
      <trkpt lat="45.38199" lon="6.67557">
        <ele>2062.50908</ele>
        <time>2010-08-09T09:08:34Z</time>
      </trkpt>
      <trkpt lat="45.38197" lon="6.67564">
        <ele>2061.493718</ele>
        <time>2010-08-09T09:08:54Z</time>
      </trkpt>
      <trkpt lat="45.382" lon="6.67569">
        <ele>2063.258121</ele>
        <time>2010-08-09T09:09:20Z</time>
      </trkpt>
      <trkpt lat="45.38196" lon="6.67579">
        <ele>2063.882951</ele>
        <time>2010-08-09T09:09:40Z</time>
      </trkpt>
      <trkpt lat="45.38193" lon="6.67582">
        <ele>2066.206562</ele>
        <time>2010-08-09T09:10:01Z</time>
      </trkpt>
      <trkpt lat="45.38193" lon="6.67586">
        <ele>2073.58027</ele>
        <time>2010-08-09T09:10:21Z</time>
      </trkpt>
      <trkpt lat="45.38194" lon="6.67587">
        <ele>2078.616175</ele>
        <time>2010-08-09T09:10:41Z</time>
      </trkpt>
      <trkpt lat="45.38192" lon="6.67594">
        <ele>2076.177225</ele>
        <time>2010-08-09T09:11:01Z</time>
      </trkpt>
      <trkpt lat="45.38188" lon="6.67598">
        <ele>2079.991917</ele>
        <time>2010-08-09T09:11:21Z</time>
      </trkpt>
      <trkpt lat="45.38185" lon="6.67603">
        <ele>2079.578356</ele>
        <time>2010-08-09T09:11:44Z</time>
      </trkpt>
      <trkpt lat="45.38182" lon="6.67607">
        <ele>2081.286021</ele>
        <time>2010-08-09T09:12:04Z</time>
      </trkpt>
      <trkpt lat="45.38181" lon="6.67616">
        <ele>2081.857615</ele>
        <time>2010-08-09T09:12:24Z</time>
      </trkpt>
      <trkpt lat="45.3818" lon="6.67639">
        <ele>2088.965137</ele>
        <time>2010-08-09T09:12:44Z</time>
      </trkpt>
      <trkpt lat="45.38171" lon="6.67644">
        <ele>2088.576517</ele>
        <time>2010-08-09T09:13:04Z</time>
      </trkpt>
      <trkpt lat="45.38167" lon="6.67647">
        <ele>2087.369526</ele>
        <time>2010-08-09T09:13:24Z</time>
      </trkpt>
      <trkpt lat="45.38168" lon="6.67651">
        <ele>2093.963984</ele>
        <time>2010-08-09T09:13:44Z</time>
      </trkpt>
      <trkpt lat="45.38169" lon="6.67655">
        <ele>2099.942489</ele>
        <time>2010-08-09T09:14:04Z</time>
      </trkpt>
      <trkpt lat="45.38164" lon="6.67662">
        <ele>2103.906363</ele>
        <time>2010-08-09T09:14:24Z</time>
      </trkpt>
      <trkpt lat="45.38168" lon="6.6768">
        <ele>2110.744064</ele>
        <time>2010-08-09T09:14:44Z</time>
      </trkpt>
      <trkpt lat="45.38173" lon="6.67687">
        <ele>2121.868525</ele>
        <time>2010-08-09T09:15:04Z</time>
      </trkpt>
      <trkpt lat="45.38177" lon="6.67687">
        <ele>2133.268094</ele>
        <time>2010-08-09T09:15:24Z</time>
      </trkpt>
      <trkpt lat="45.38179" lon="6.67687">
        <ele>2139.631756</ele>
        <time>2010-08-09T09:15:44Z</time>
      </trkpt>
      <trkpt lat="45.3818" lon="6.67687">
        <ele>2144.586001</ele>
        <time>2010-08-09T09:16:04Z</time>
      </trkpt>
      <trkpt lat="45.38182" lon="6.67686">
        <ele>2149.540246</ele>
        <time>2010-08-09T09:16:42Z</time>
      </trkpt>
      <trkpt lat="45.38184" lon="6.67686">
        <ele>2154.494492</ele>
        <time>2010-08-09T09:17:09Z</time>
      </trkpt>
      <trkpt lat="45.38186" lon="6.67685">
        <ele>2159.367074</ele>
        <time>2010-08-09T09:18:14Z</time>
      </trkpt>
      <trkpt lat="45.38184" lon="6.67686">
        <ele>2154.494492</ele>
        <time>2010-08-09T09:19:17Z</time>
      </trkpt>
      <trkpt lat="45.38181" lon="6.67686">
        <ele>2148.11664</ele>
        <time>2010-08-09T09:19:37Z</time>
      </trkpt>
      <trkpt lat="45.38179" lon="6.67687">
        <ele>2143.162395</ele>
        <time>2010-08-09T09:20:35Z</time>
      </trkpt>
      <trkpt lat="45.38175" lon="6.67686">
        <ele>2140.998613</ele>
        <time>2010-08-09T09:20:59Z</time>
      </trkpt>
      <trkpt lat="45.38146" lon="6.67675">
        <ele>2132.341859</ele>
        <time>2010-08-09T09:21:19Z</time>
      </trkpt>
      <trkpt lat="45.3812" lon="6.67676">
        <ele>2120.946319</ele>
        <time>2010-08-09T09:21:39Z</time>
      </trkpt>
      <trkpt lat="45.38114" lon="6.6767">
        <ele>2129.086973</ele>
        <time>2010-08-09T09:21:59Z</time>
      </trkpt>
      <trkpt lat="45.38094" lon="6.67662">
        <ele>2138.399543</ele>
        <time>2010-08-09T09:22:19Z</time>
      </trkpt>
      <trkpt lat="45.38072" lon="6.67657">
        <ele>2138.693061</ele>
        <time>2010-08-09T09:22:39Z</time>
      </trkpt>
      <trkpt lat="45.38058" lon="6.67668">
        <ele>2140.065738</ele>
        <time>2010-08-09T09:22:59Z</time>
      </trkpt>
      <trkpt lat="45.38055" lon="6.67672">
        <ele>2138.954666</ele>
        <time>2010-08-09T09:23:21Z</time>
      </trkpt>
      <trkpt lat="45.38075" lon="6.67679">
        <ele>2140.835633</ele>
        <time>2010-08-09T09:23:41Z</time>
      </trkpt>
      <trkpt lat="45.38089" lon="6.67704">
        <ele>2147.497326</ele>
        <time>2010-08-09T09:24:01Z</time>
      </trkpt>
      <trkpt lat="45.38086" lon="6.67726">
        <ele>2152.469684</ele>
        <time>2010-08-09T09:24:21Z</time>
      </trkpt>
      <trkpt lat="45.38099" lon="6.67742">
        <ele>2154.933337</ele>
        <time>2010-08-09T09:24:41Z</time>
      </trkpt>
      <trkpt lat="45.38103" lon="6.6776">
        <ele>2156.831079</ele>
        <time>2010-08-09T09:25:01Z</time>
      </trkpt>
      <trkpt lat="45.38104" lon="6.67785">
        <ele>2153.485407</ele>
        <time>2010-08-09T09:25:21Z</time>
      </trkpt>
      <trkpt lat="45.38105" lon="6.67793">
        <ele>2151.868441</ele>
        <time>2010-08-09T09:25:41Z</time>
      </trkpt>
      <trkpt lat="45.38102" lon="6.67797">
        <ele>2154.288029</ele>
        <time>2010-08-09T09:26:06Z</time>
      </trkpt>
      <trkpt lat="45.38103" lon="6.67802">
        <ele>2160.266586</ele>
        <time>2010-08-09T09:26:26Z</time>
      </trkpt>
      <trkpt lat="45.38104" lon="6.67804">
        <ele>2165.36999</ele>
        <time>2010-08-09T09:26:46Z</time>
      </trkpt>
      <trkpt lat="45.38107" lon="6.67805">
        <ele>2173.238889</ele>
        <time>2010-08-09T09:27:06Z</time>
      </trkpt>
      <trkpt lat="45.38105" lon="6.67809">
        <ele>2169.241512</ele>
        <time>2010-08-09T09:27:37Z</time>
      </trkpt>
      <trkpt lat="45.38103" lon="6.67814">
        <ele>2167.432857</ele>
        <time>2010-08-09T09:27:57Z</time>
      </trkpt>
      <trkpt lat="45.38109" lon="6.67817">
        <ele>2179.024092</ele>
        <time>2010-08-09T09:28:17Z</time>
      </trkpt>
      <trkpt lat="45.38107" lon="6.67822">
        <ele>2177.21544</ele>
        <time>2010-08-09T09:28:43Z</time>
      </trkpt>
      <trkpt lat="45.38106" lon="6.67829">
        <ele>2176.200269</ele>
        <time>2010-08-09T09:29:09Z</time>
      </trkpt>
      <trkpt lat="45.38107" lon="6.67832">
        <ele>2179.990118</ele>
        <time>2010-08-09T09:29:39Z</time>
      </trkpt>
      <trkpt lat="45.38109" lon="6.67837">
        <ele>2184.573449</ele>
        <time>2010-08-09T09:29:59Z</time>
      </trkpt>
      <trkpt lat="45.38112" lon="6.67845">
        <ele>2188.622532</ele>
        <time>2010-08-09T09:30:19Z</time>
      </trkpt>
      <trkpt lat="45.38108" lon="6.67855">
        <ele>2197.074062</ele>
        <time>2010-08-09T09:30:39Z</time>
      </trkpt>
      <trkpt lat="45.38106" lon="6.67862">
        <ele>2201.066467</ele>
        <time>2010-08-09T09:30:59Z</time>
      </trkpt>
      <trkpt lat="45.38095" lon="6.67879">
        <ele>2213.453756</ele>
        <time>2010-08-09T09:31:19Z</time>
      </trkpt>
      <trkpt lat="45.3809" lon="6.67889">
        <ele>2213.352982</ele>
        <time>2010-08-09T09:31:39Z</time>
      </trkpt>
      <trkpt lat="45.3808" lon="6.67901">
        <ele>2221.199498</ele>
        <time>2010-08-09T09:31:59Z</time>
      </trkpt>
      <trkpt lat="45.38081" lon="6.6791">
        <ele>2230.323702</ele>
        <time>2010-08-09T09:32:19Z</time>
      </trkpt>
      <trkpt lat="45.38082" lon="6.67911">
        <ele>2236.057222</ele>
        <time>2010-08-09T09:32:39Z</time>
      </trkpt>
      <trkpt lat="45.38075" lon="6.67923">
        <ele>2234.6963</ele>
        <time>2010-08-09T09:32:59Z</time>
      </trkpt>
      <trkpt lat="45.38064" lon="6.67937">
        <ele>2227.722787</ele>
        <time>2010-08-09T09:33:19Z</time>
      </trkpt>
      <trkpt lat="45.3807" lon="6.67942">
        <ele>2240.886824</ele>
        <time>2010-08-09T09:33:39Z</time>
      </trkpt>
      <trkpt lat="45.38076" lon="6.67953">
        <ele>2246.551273</ele>
        <time>2010-08-09T09:33:59Z</time>
      </trkpt>
      <trkpt lat="45.38074" lon="6.67962">
        <ele>2244.290178</ele>
        <time>2010-08-09T09:34:19Z</time>
      </trkpt>
      <trkpt lat="45.38069" lon="6.67969">
        <ele>2244.723722</ele>
        <time>2010-08-09T09:34:39Z</time>
      </trkpt>
      <trkpt lat="45.38063" lon="6.67973">
        <ele>2246.403287</ele>
        <time>2010-08-09T09:34:59Z</time>
      </trkpt>
      <trkpt lat="45.3806" lon="6.67976">
        <ele>2248.727107</ele>
        <time>2010-08-09T09:35:19Z</time>
      </trkpt>
      <trkpt lat="45.38056" lon="6.67981">
        <ele>2249.72322</ele>
        <time>2010-08-09T09:35:39Z</time>
      </trkpt>
      <trkpt lat="45.38054" lon="6.67987">
        <ele>2250.103414</ele>
        <time>2010-08-09T09:35:59Z</time>
      </trkpt>
      <trkpt lat="45.38051" lon="6.6799">
        <ele>2253.139032</ele>
        <time>2010-08-09T09:36:39Z</time>
      </trkpt>
      <trkpt lat="45.38037" lon="6.68006">
        <ele>2248.421956</ele>
        <time>2010-08-09T09:36:59Z</time>
      </trkpt>
      <trkpt lat="45.38035" lon="6.68017">
        <ele>2260.500177</ele>
        <time>2010-08-09T09:37:19Z</time>
      </trkpt>
      <trkpt lat="45.38033" lon="6.68023">
        <ele>2263.001602</ele>
        <time>2010-08-09T09:37:44Z</time>
      </trkpt>
      <trkpt lat="45.38017" lon="6.68049">
        <ele>2270.978805</ele>
        <time>2010-08-09T09:38:04Z</time>
      </trkpt>
      <trkpt lat="45.38008" lon="6.6806">
        <ele>2277.34867</ele>
        <time>2010-08-09T09:38:24Z</time>
      </trkpt>
      <trkpt lat="45.3799" lon="6.68071">
        <ele>2282.98946</ele>
        <time>2010-08-09T09:38:44Z</time>
      </trkpt>
      <trkpt lat="45.37981" lon="6.68073">
        <ele>2283.751504</ele>
        <time>2010-08-09T09:39:04Z</time>
      </trkpt>
      <trkpt lat="45.37967" lon="6.68083">
        <ele>2280.117282</ele>
        <time>2010-08-09T09:39:24Z</time>
      </trkpt>
      <trkpt lat="45.37953" lon="6.68095">
        <ele>2275.141273</ele>
        <time>2010-08-09T09:39:44Z</time>
      </trkpt>
      <trkpt lat="45.37935" lon="6.68109">
        <ele>2274.610447</ele>
        <time>2010-08-09T09:40:04Z</time>
      </trkpt>
      <trkpt lat="45.37925" lon="6.6812">
        <ele>2285.892254</ele>
        <time>2010-08-09T09:40:24Z</time>
      </trkpt>
      <trkpt lat="45.37906" lon="6.68126">
        <ele>2278.42595</ele>
        <time>2010-08-09T09:40:44Z</time>
      </trkpt>
      <trkpt lat="45.37888" lon="6.68137">
        <ele>2285.47658</ele>
        <time>2010-08-09T09:41:04Z</time>
      </trkpt>
      <trkpt lat="45.37869" lon="6.68146">
        <ele>2288.121479</ele>
        <time>2010-08-09T09:41:24Z</time>
      </trkpt>
      <trkpt lat="45.3785" lon="6.68157">
        <ele>2275.26293</ele>
        <time>2010-08-09T09:41:44Z</time>
      </trkpt>
      <trkpt lat="45.37834" lon="6.68165">
        <ele>2280.6733</ele>
        <time>2010-08-09T09:42:04Z</time>
      </trkpt>
      <trkpt lat="45.37823" lon="6.68166">
        <ele>2266.548048</ele>
        <time>2010-08-09T09:42:24Z</time>
      </trkpt>
      <trkpt lat="45.3783" lon="6.68167">
        <ele>2290.044388</ele>
        <time>2010-08-09T09:42:44Z</time>
      </trkpt>
      <trkpt lat="45.37833" lon="6.68168">
        <ele>2298.610803</ele>
        <time>2010-08-09T09:43:04Z</time>
      </trkpt>
      <trkpt lat="45.37835" lon="6.68168">
        <ele>2303.564908</ele>
        <time>2010-08-09T09:43:33Z</time>
      </trkpt>
      <trkpt lat="45.37833" lon="6.68168">
        <ele>2298.610803</ele>
        <time>2010-08-09T09:43:53Z</time>
      </trkpt>
      <trkpt lat="45.3783" lon="6.68174">
        <ele>2296.88417</ele>
        <time>2010-08-09T09:44:36Z</time>
      </trkpt>
      <trkpt lat="45.37836" lon="6.68195">
        <ele>2308.921785</ele>
        <time>2010-08-09T09:44:56Z</time>
      </trkpt>
      <trkpt lat="45.37844" lon="6.68209">
        <ele>2312.656719</ele>
        <time>2010-08-09T09:45:16Z</time>
      </trkpt>
      <trkpt lat="45.37838" lon="6.6821">
        <ele>2304.923189</ele>
        <time>2010-08-09T09:45:36Z</time>
      </trkpt>
      <trkpt lat="45.37838" lon="6.68221">
        <ele>2310.598795</ele>
        <time>2010-08-09T09:45:56Z</time>
      </trkpt>
      <trkpt lat="45.37838" lon="6.68235">
        <ele>2316.437886</ele>
        <time>2010-08-09T09:46:16Z</time>
      </trkpt>
      <trkpt lat="45.3784" lon="6.6824">
        <ele>2321.021291</ele>
        <time>2010-08-09T09:46:36Z</time>
      </trkpt>
      <trkpt lat="45.37841" lon="6.68247">
        <ele>2320.81407</ele>
        <time>2010-08-09T09:46:56Z</time>
      </trkpt>
      <trkpt lat="45.37842" lon="6.68252">
        <ele>2325.383369</ele>
        <time>2010-08-09T09:47:16Z</time>
      </trkpt>
      <trkpt lat="45.37839" lon="6.68257">
        <ele>2323.575043</ele>
        <time>2010-08-09T09:47:36Z</time>
      </trkpt>
      <trkpt lat="45.37836" lon="6.68264">
        <ele>2328.96314</ele>
        <time>2010-08-09T09:47:56Z</time>
      </trkpt>
      <trkpt lat="45.37833" lon="6.68287">
        <ele>2326.192156</ele>
        <time>2010-08-09T09:48:16Z</time>
      </trkpt>
      <trkpt lat="45.37827" lon="6.68304">
        <ele>2317.332526</ele>
        <time>2010-08-09T09:48:36Z</time>
      </trkpt>
      <trkpt lat="45.37818" lon="6.68349">
        <ele>2317.386107</ele>
        <time>2010-08-09T09:48:56Z</time>
      </trkpt>
      <trkpt lat="45.37818" lon="6.68376">
        <ele>2316.29821</ele>
        <time>2010-08-09T09:49:16Z</time>
      </trkpt>
      <trkpt lat="45.37816" lon="6.684">
        <ele>2319.260983</ele>
        <time>2010-08-09T09:49:36Z</time>
      </trkpt>
      <trkpt lat="45.37824" lon="6.68412">
        <ele>2325.021448</ele>
        <time>2010-08-09T09:49:56Z</time>
      </trkpt>
      <trkpt lat="45.37821" lon="6.68422">
        <ele>2324.237895</ele>
        <time>2010-08-09T09:50:16Z</time>
      </trkpt>
      <trkpt lat="45.3782" lon="6.68429">
        <ele>2330.366089</ele>
        <time>2010-08-09T09:50:36Z</time>
      </trkpt>
      <trkpt lat="45.37819" lon="6.68435">
        <ele>2334.989009</ele>
        <time>2010-08-09T09:50:56Z</time>
      </trkpt>
      <trkpt lat="45.37819" lon="6.68438">
        <ele>2340.174276</ele>
        <time>2010-08-09T09:51:16Z</time>
      </trkpt>
      <trkpt lat="45.3782" lon="6.68444">
        <ele>2343.416014</ele>
        <time>2010-08-09T09:51:40Z</time>
      </trkpt>
      <trkpt lat="45.37825" lon="6.6845">
        <ele>2352.337717</ele>
        <time>2010-08-09T09:52:00Z</time>
      </trkpt>
      <trkpt lat="45.37824" lon="6.68454">
        <ele>2356.81123</ele>
        <time>2010-08-09T09:52:49Z</time>
      </trkpt>
      <trkpt lat="45.37823" lon="6.6846">
        <ele>2354.387126</ele>
        <time>2010-08-09T09:53:35Z</time>
      </trkpt>
      <trkpt lat="45.37826" lon="6.68482">
        <ele>2372.828246</ele>
        <time>2010-08-09T09:53:55Z</time>
      </trkpt>
      <trkpt lat="45.37831" lon="6.68485">
        <ele>2382.284088</ele>
        <time>2010-08-09T09:54:15Z</time>
      </trkpt>
      <trkpt lat="45.37831" lon="6.68495">
        <ele>2374.414139</ele>
        <time>2010-08-09T09:54:35Z</time>
      </trkpt>
      <trkpt lat="45.37844" lon="6.68514">
        <ele>2380.640052</ele>
        <time>2010-08-09T09:54:55Z</time>
      </trkpt>
      <trkpt lat="45.37843" lon="6.68523">
        <ele>2377.681879</ele>
        <time>2010-08-09T09:55:15Z</time>
      </trkpt>
      <trkpt lat="45.37838" lon="6.68529">
        <ele>2373.820173</ele>
        <time>2010-08-09T09:55:35Z</time>
      </trkpt>
      <trkpt lat="45.37835" lon="6.68529">
        <ele>2378.717806</ele>
        <time>2010-08-09T09:55:55Z</time>
      </trkpt>
      <trkpt lat="45.37835" lon="6.68528">
        <ele>2383.643671</ele>
        <time>2010-08-09T09:56:23Z</time>
      </trkpt>
      <trkpt lat="45.37837" lon="6.68533">
        <ele>2386.120161</ele>
        <time>2010-08-09T09:56:48Z</time>
      </trkpt>
      <trkpt lat="45.3784" lon="6.6854">
        <ele>2385.859617</ele>
        <time>2010-08-09T09:57:08Z</time>
      </trkpt>
      <trkpt lat="45.3784" lon="6.68546">
        <ele>2385.570845</ele>
        <time>2010-08-09T09:57:28Z</time>
      </trkpt>
      <trkpt lat="45.37838" lon="6.68547">
        <ele>2390.564366</ele>
        <time>2010-08-09T09:57:51Z</time>
      </trkpt>
      <trkpt lat="45.37838" lon="6.68546">
        <ele>2395.490229</ele>
        <time>2010-08-09T09:58:21Z</time>
      </trkpt>
      <trkpt lat="45.37843" lon="6.6856">
        <ele>2402.795615</ele>
        <time>2010-08-09T09:58:41Z</time>
      </trkpt>
      <trkpt lat="45.3785" lon="6.68579">
        <ele>2403.32757</ele>
        <time>2010-08-09T09:59:01Z</time>
      </trkpt>
      <trkpt lat="45.37856" lon="6.68589">
        <ele>2409.690029</ele>
        <time>2010-08-09T09:59:21Z</time>
      </trkpt>
      <trkpt lat="45.37859" lon="6.686">
        <ele>2409.688996</ele>
        <time>2010-08-09T09:59:41Z</time>
      </trkpt>
      <trkpt lat="45.37864" lon="6.6861">
        <ele>2410.31796</ele>
        <time>2010-08-09T10:00:01Z</time>
      </trkpt>
      <trkpt lat="45.37866" lon="6.68615">
        <ele>2412.082743</ele>
        <time>2010-08-09T10:00:21Z</time>
      </trkpt>
      <trkpt lat="45.37869" lon="6.6862">
        <ele>2414.559294</ele>
        <time>2010-08-09T10:01:13Z</time>
      </trkpt>
      <trkpt lat="45.37873" lon="6.68625">
        <ele>2420.566424</ele>
        <time>2010-08-09T10:01:33Z</time>
      </trkpt>
      <trkpt lat="45.37874" lon="6.68629">
        <ele>2424.356478</ele>
        <time>2010-08-09T10:01:53Z</time>
      </trkpt>
      <trkpt lat="45.37871" lon="6.68627">
        <ele>2427.762891</ele>
        <time>2010-08-09T10:02:13Z</time>
      </trkpt>
      <trkpt lat="45.37867" lon="6.68635">
        <ele>2436.831224</ele>
        <time>2010-08-09T10:02:33Z</time>
      </trkpt>
      <trkpt lat="45.37855" lon="6.68645">
        <ele>2445.896619</ele>
        <time>2010-08-09T10:02:53Z</time>
      </trkpt>
      <trkpt lat="45.37853" lon="6.68645">
        <ele>2455.118354</ele>
        <time>2010-08-09T10:03:13Z</time>
      </trkpt>
      <trkpt lat="45.3785" lon="6.68651">
        <ele>2455.499048</ele>
        <time>2010-08-09T10:03:44Z</time>
      </trkpt>
      <trkpt lat="45.37847" lon="6.68649">
        <ele>2458.905472</ele>
        <time>2010-08-09T10:04:19Z</time>
      </trkpt>
      <trkpt lat="45.37844" lon="6.68655">
        <ele>2459.997933</ele>
        <time>2010-08-09T10:04:48Z</time>
      </trkpt>
      <trkpt lat="45.37843" lon="6.68661">
        <ele>2461.802161</ele>
        <time>2010-08-09T10:05:52Z</time>
      </trkpt>
      <trkpt lat="45.37845" lon="6.68667">
        <ele>2462.239346</ele>
        <time>2010-08-09T10:06:43Z</time>
      </trkpt>
      <trkpt lat="45.37848" lon="6.68671">
        <ele>2464.634121</ele>
        <time>2010-08-09T10:07:25Z</time>
      </trkpt>
      <trkpt lat="45.37849" lon="6.68678">
        <ele>2465.768957</ele>
        <time>2010-08-09T10:07:45Z</time>
      </trkpt>
      <trkpt lat="45.37851" lon="6.68684">
        <ele>2466.206155</ele>
        <time>2010-08-09T10:08:05Z</time>
      </trkpt>
      <trkpt lat="45.37854" lon="6.68693">
        <ele>2470.337514</ele>
        <time>2010-08-09T10:08:25Z</time>
      </trkpt>
      <trkpt lat="45.37855" lon="6.68702">
        <ele>2477.273567</ele>
        <time>2010-08-09T10:08:45Z</time>
      </trkpt>
      <trkpt lat="45.37857" lon="6.68711">
        <ele>2479.981416</ele>
        <time>2010-08-09T10:09:05Z</time>
      </trkpt>
      <trkpt lat="45.37864" lon="6.6874">
        <ele>2481.879807</ele>
        <time>2010-08-09T10:09:25Z</time>
      </trkpt>
      <trkpt lat="45.3787" lon="6.68764">
        <ele>2485.625798</ele>
        <time>2010-08-09T10:09:45Z</time>
      </trkpt>
      <trkpt lat="45.37869" lon="6.68772">
        <ele>2486.116607</ele>
        <time>2010-08-09T10:10:05Z</time>
      </trkpt>
      <trkpt lat="45.37869" lon="6.68771">
        <ele>2493.861259</ele>
        <time>2010-08-09T10:10:25Z</time>
      </trkpt>
      <trkpt lat="45.37872" lon="6.6879">
        <ele>2497.963619</ele>
        <time>2010-08-09T10:10:45Z</time>
      </trkpt>
      <trkpt lat="45.37876" lon="6.68792">
        <ele>2501.604251</ele>
        <time>2010-08-09T10:11:07Z</time>
      </trkpt>
      <trkpt lat="45.37875" lon="6.68811">
        <ele>2495.086685</ele>
        <time>2010-08-09T10:11:27Z</time>
      </trkpt>
      <trkpt lat="45.37871" lon="6.68823">
        <ele>2490.854724</ele>
        <time>2010-08-09T10:11:47Z</time>
      </trkpt>
      <trkpt lat="45.37868" lon="6.68815">
        <ele>2499.571479</ele>
        <time>2010-08-09T10:12:07Z</time>
      </trkpt>
      <trkpt lat="45.37856" lon="6.68816">
        <ele>2506.640846</ele>
        <time>2010-08-09T10:12:27Z</time>
      </trkpt>
      <trkpt lat="45.37858" lon="6.68811">
        <ele>2507.751269</ele>
        <time>2010-08-09T10:12:47Z</time>
      </trkpt>
      <trkpt lat="45.37862" lon="6.68823">
        <ele>2509.241677</ele>
        <time>2010-08-09T10:13:07Z</time>
      </trkpt>
      <trkpt lat="45.37862" lon="6.68833">
        <ele>2506.379706</ele>
        <time>2010-08-09T10:13:27Z</time>
      </trkpt>
      <trkpt lat="45.37861" lon="6.68839">
        <ele>2506.77463</ele>
        <time>2010-08-09T10:13:55Z</time>
      </trkpt>
      <trkpt lat="45.37861" lon="6.68848">
        <ele>2505.240267</ele>
        <time>2010-08-09T10:14:15Z</time>
      </trkpt>
      <trkpt lat="45.3786" lon="6.68855">
        <ele>2502.830523</ele>
        <time>2010-08-09T10:14:35Z</time>
      </trkpt>
      <trkpt lat="45.37859" lon="6.68864">
        <ele>2499.872646</ele>
        <time>2010-08-09T10:14:55Z</time>
      </trkpt>
      <trkpt lat="45.37858" lon="6.68871">
        <ele>2499.569952</ele>
        <time>2010-08-09T10:15:15Z</time>
      </trkpt>
      <trkpt lat="45.37856" lon="6.68871">
        <ele>2503.851719</ele>
        <time>2010-08-09T10:15:43Z</time>
      </trkpt>
      <trkpt lat="45.37855" lon="6.68869">
        <ele>2508.695747</ele>
        <time>2010-08-09T10:16:03Z</time>
      </trkpt>
      <trkpt lat="45.37853" lon="6.68874">
        <ele>2506.887716</ele>
        <time>2010-08-09T10:16:39Z</time>
      </trkpt>
      <trkpt lat="45.37851" lon="6.68878">
        <ele>2510.635478</ele>
        <time>2010-08-09T10:17:03Z</time>
      </trkpt>
      <trkpt lat="45.37848" lon="6.68884">
        <ele>2511.72807</ele>
        <time>2010-08-09T10:17:37Z</time>
      </trkpt>
      <trkpt lat="45.37846" lon="6.68893">
        <ele>2508.756098</ele>
        <time>2010-08-09T10:17:57Z</time>
      </trkpt>
      <trkpt lat="45.37843" lon="6.68897">
        <ele>2509.752762</ele>
        <time>2010-08-09T10:18:29Z</time>
      </trkpt>
      <trkpt lat="45.37818" lon="6.68892">
        <ele>2528.504352</ele>
        <time>2010-08-09T10:18:49Z</time>
      </trkpt>
      <trkpt lat="45.37811" lon="6.68899">
        <ele>2530.334084</ele>
        <time>2010-08-09T10:19:09Z</time>
      </trkpt>
      <trkpt lat="45.37803" lon="6.68895">
        <ele>2532.904569</ele>
        <time>2010-08-09T10:19:29Z</time>
      </trkpt>
      <trkpt lat="45.37798" lon="6.68887">
        <ele>2541.593085</ele>
        <time>2010-08-09T10:19:49Z</time>
      </trkpt>
      <trkpt lat="45.37798" lon="6.68894">
        <ele>2540.592771</ele>
        <time>2010-08-09T10:20:09Z</time>
      </trkpt>
      <trkpt lat="45.37795" lon="6.68899">
        <ele>2539.482421</ele>
        <time>2010-08-09T10:20:42Z</time>
      </trkpt>
      <trkpt lat="45.37793" lon="6.68905">
        <ele>2538.468005</ele>
        <time>2010-08-09T10:21:09Z</time>
      </trkpt>
      <trkpt lat="45.37791" lon="6.68907">
        <ele>2543.543382</ele>
        <time>2010-08-09T10:21:42Z</time>
      </trkpt>
      <trkpt lat="45.37791" lon="6.68908">
        <ele>2549.262805</ele>
        <time>2010-08-09T10:22:13Z</time>
      </trkpt>
      <trkpt lat="45.37788" lon="6.68923">
        <ele>2555.935857</ele>
        <time>2010-08-09T10:22:33Z</time>
      </trkpt>
      <trkpt lat="45.37783" lon="6.68928">
        <ele>2565.456691</ele>
        <time>2010-08-09T10:22:53Z</time>
      </trkpt>
      <trkpt lat="45.37781" lon="6.68931">
        <ele>2569.204499</ele>
        <time>2010-08-09T10:23:14Z</time>
      </trkpt>
      <trkpt lat="45.37778" lon="6.68934">
        <ele>2572.240554</ele>
        <time>2010-08-09T10:23:50Z</time>
      </trkpt>
      <trkpt lat="45.37774" lon="6.68936">
        <ele>2575.180682</ele>
        <time>2010-08-09T10:24:10Z</time>
      </trkpt>
      <trkpt lat="45.3777" lon="6.68938">
        <ele>2578.120814</ele>
        <time>2010-08-09T10:24:44Z</time>
      </trkpt>
      <trkpt lat="45.37767" lon="6.68939">
        <ele>2581.690878</ele>
        <time>2010-08-09T10:25:13Z</time>
      </trkpt>
      <trkpt lat="45.37766" lon="6.68938">
        <ele>2586.616727</ele>
        <time>2010-08-09T10:25:33Z</time>
      </trkpt>
      <trkpt lat="45.37766" lon="6.68935">
        <ele>2593.500082</ele>
        <time>2010-08-09T10:25:53Z</time>
      </trkpt>
      <trkpt lat="45.37766" lon="6.68931">
        <ele>2601.081087</ele>
        <time>2010-08-09T10:26:13Z</time>
      </trkpt>
      <trkpt lat="45.37766" lon="6.68932">
        <ele>2606.102864</ele>
        <time>2010-08-09T10:27:04Z</time>
      </trkpt>
      <trkpt lat="45.37769" lon="6.68936">
        <ele>2609.195343</ele>
        <time>2010-08-09T10:27:43Z</time>
      </trkpt>
      <trkpt lat="45.3777" lon="6.68939">
        <ele>2613.68312</ele>
        <time>2010-08-09T10:28:31Z</time>
      </trkpt>
      <trkpt lat="45.3777" lon="6.68951">
        <ele>2605.183666</ele>
        <time>2010-08-09T10:28:51Z</time>
      </trkpt>
      <trkpt lat="45.37771" lon="6.6896">
        <ele>2598.025904</ele>
        <time>2010-08-09T10:29:11Z</time>
      </trkpt>
      <trkpt lat="45.37771" lon="6.68967">
        <ele>2597.737391</ele>
        <time>2010-08-09T10:29:44Z</time>
      </trkpt>
      <trkpt lat="45.37772" lon="6.68969">
        <ele>2602.840998</ele>
        <time>2010-08-09T10:30:05Z</time>
      </trkpt>
      <trkpt lat="45.37771" lon="6.6897">
        <ele>2607.848673</ele>
        <time>2010-08-09T10:30:25Z</time>
      </trkpt>
      <trkpt lat="45.3777" lon="6.6897">
        <ele>2612.856347</ele>
        <time>2010-08-09T10:30:51Z</time>
      </trkpt>
      <trkpt lat="45.3777" lon="6.68971">
        <ele>2618.575775</ele>
        <time>2010-08-09T10:31:11Z</time>
      </trkpt>
      <trkpt lat="45.37771" lon="6.68973">
        <ele>2625.800536</ele>
        <time>2010-08-09T10:31:31Z</time>
      </trkpt>
      <trkpt lat="45.37772" lon="6.68974">
        <ele>2630.822317</ele>
        <time>2010-08-09T10:31:54Z</time>
      </trkpt>
      <trkpt lat="45.37774" lon="6.68975">
        <ele>2635.858204</ele>
        <time>2010-08-09T10:32:27Z</time>
      </trkpt>
      <trkpt lat="45.37776" lon="6.68976">
        <ele>2640.196445</ele>
        <time>2010-08-09T10:32:55Z</time>
      </trkpt>
      <trkpt lat="45.37779" lon="6.68977">
        <ele>2643.837041</ele>
        <time>2010-08-09T10:33:36Z</time>
      </trkpt>
      <trkpt lat="45.37782" lon="6.6898">
        <ele>2648.257114</ele>
        <time>2010-08-09T10:34:17Z</time>
      </trkpt>
      <trkpt lat="45.37782" lon="6.68984">
        <ele>2652.114983</ele>
        <time>2010-08-09T10:36:59Z</time>
      </trkpt>
      <trkpt lat="45.37785" lon="6.68981">
        <ele>2654.716514</ele>
        <time>2010-08-09T10:38:35Z</time>
      </trkpt>
      <trkpt lat="45.37792" lon="6.68977">
        <ele>2655.253334</ele>
        <time>2010-08-09T10:38:55Z</time>
      </trkpt>
      <trkpt lat="45.37798" lon="6.68978">
        <ele>2656.021536</ele>
        <time>2010-08-09T10:39:15Z</time>
      </trkpt>
      <trkpt lat="45.37802" lon="6.68976">
        <ele>2658.021375</ele>
        <time>2010-08-09T10:39:40Z</time>
      </trkpt>
      <trkpt lat="45.37807" lon="6.68974">
        <ele>2658.611818</ele>
        <time>2010-08-09T10:40:04Z</time>
      </trkpt>
      <trkpt lat="45.37811" lon="6.68973">
        <ele>2660.693493</ele>
        <time>2010-08-09T10:40:29Z</time>
      </trkpt>
      <trkpt lat="45.37816" lon="6.68972">
        <ele>2662.775172</ele>
        <time>2010-08-09T10:41:28Z</time>
      </trkpt>
      <trkpt lat="45.37819" lon="6.68974">
        <ele>2666.497619</ele>
        <time>2010-08-09T10:42:52Z</time>
      </trkpt>
      <trkpt lat="45.37818" lon="6.68982">
        <ele>2666.988586</ele>
        <time>2010-08-09T10:43:27Z</time>
      </trkpt>
      <trkpt lat="45.37805" lon="6.68998">
        <ele>2667.993039</ele>
        <time>2010-08-09T10:43:47Z</time>
      </trkpt>
      <trkpt lat="45.37795" lon="6.69006">
        <ele>2670.574107</ele>
        <time>2010-08-09T10:44:07Z</time>
      </trkpt>
      <trkpt lat="45.37797" lon="6.69002">
        <ele>2673.175637</ele>
        <time>2010-08-09T10:44:29Z</time>
      </trkpt>
      <trkpt lat="45.37796" lon="6.68995">
        <ele>2673.450015</ele>
        <time>2010-08-09T10:44:49Z</time>
      </trkpt>
      <trkpt lat="45.37799" lon="6.68992">
        <ele>2675.353905</ele>
        <time>2010-08-09T10:45:23Z</time>
      </trkpt>
      <trkpt lat="45.37803" lon="6.68994">
        <ele>2678.378704</ele>
        <time>2010-08-09T10:46:13Z</time>
      </trkpt>
      <trkpt lat="45.37805" lon="6.68998">
        <ele>2681.471223</ele>
        <time>2010-08-09T10:46:57Z</time>
      </trkpt>
      <trkpt lat="45.37804" lon="6.69003">
        <ele>2685.314987</ele>
        <time>2010-08-09T10:47:44Z</time>
      </trkpt>
      <trkpt lat="45.37806" lon="6.69006">
        <ele>2689.105152</ele>
        <time>2010-08-09T10:48:29Z</time>
      </trkpt>
      <trkpt lat="45.37808" lon="6.69009">
        <ele>2693.525243</ele>
        <time>2010-08-09T10:49:43Z</time>
      </trkpt>
      <trkpt lat="45.37811" lon="6.6901">
        <ele>2697.863505</ele>
        <time>2010-08-09T10:51:14Z</time>
      </trkpt>
      <trkpt lat="45.37815" lon="6.69008">
        <ele>2700.560989</ele>
        <time>2010-08-09T10:54:25Z</time>
      </trkpt>
      <trkpt lat="45.37814" lon="6.69002">
        <ele>2703.750105</ele>
        <time>2010-08-09T10:56:21Z</time>
      </trkpt>
      <trkpt lat="45.37816" lon="6.69">
        <ele>2708.622348</ele>
        <time>2010-08-09T11:00:04Z</time>
      </trkpt>
      <trkpt lat="45.37815" lon="6.68995">
        <ele>2711.099709</ele>
        <time>2010-08-09T11:02:34Z</time>
      </trkpt>
      <trkpt lat="45.37814" lon="6.68989">
        <ele>2712.865315</ele>
        <time>2010-08-09T11:05:12Z</time>
      </trkpt>
      <trkpt lat="45.37813" lon="6.68983">
        <ele>2713.153812</ele>
        <time>2010-08-09T11:08:35Z</time>
      </trkpt>
      <trkpt lat="45.37814" lon="6.68981">
        <ele>2708.064314</ele>
        <time>2010-08-09T11:10:43Z</time>
      </trkpt>
      <trkpt lat="45.3781" lon="6.68979">
        <ele>2710.758938</ele>
        <time>2010-08-09T11:13:09Z</time>
      </trkpt>
      <trkpt lat="45.37808" lon="6.68982">
        <ele>2705.968522</ele>
        <time>2010-08-09T11:14:22Z</time>
      </trkpt>
      <trkpt lat="45.37794" lon="6.68998">
        <ele>2692.085419</ele>
        <time>2010-08-09T11:14:42Z</time>
      </trkpt>
      <trkpt lat="45.37788" lon="6.68999">
        <ele>2687.868497</ele>
        <time>2010-08-09T11:15:02Z</time>
      </trkpt>
      <trkpt lat="45.37785" lon="6.68997">
        <ele>2684.146062</ele>
        <time>2010-08-09T11:15:25Z</time>
      </trkpt>
      <trkpt lat="45.37781" lon="6.68993">
        <ele>2682.448844</ele>
        <time>2010-08-09T11:15:49Z</time>
      </trkpt>
      <trkpt lat="45.37779" lon="6.68992">
        <ele>2677.412953</ele>
        <time>2010-08-09T11:16:10Z</time>
      </trkpt>
      <trkpt lat="45.37777" lon="6.68991">
        <ele>2673.074708</ele>
        <time>2010-08-09T11:16:30Z</time>
      </trkpt>
      <trkpt lat="45.37776" lon="6.68987">
        <ele>2668.586913</ele>
        <time>2010-08-09T11:17:12Z</time>
      </trkpt>
      <trkpt lat="45.37775" lon="6.68984">
        <ele>2664.099118</ele>
        <time>2010-08-09T11:18:20Z</time>
      </trkpt>
      <trkpt lat="45.37771" lon="6.68979">
        <ele>2662.401913</ele>
        <time>2010-08-09T11:19:08Z</time>
      </trkpt>
      <trkpt lat="45.37768" lon="6.68977">
        <ele>2658.679492</ele>
        <time>2010-08-09T11:21:22Z</time>
      </trkpt>
      <trkpt lat="45.37768" lon="6.68977">
        <ele>2653.73954</ele>
        <time>2010-08-09T11:22:38Z</time>
      </trkpt>
      <trkpt lat="45.37766" lon="6.68975">
        <ele>2648.621827</ele>
        <time>2010-08-09T11:25:27Z</time>
      </trkpt>
      <trkpt lat="45.37766" lon="6.68969">
        <ele>2646.091535</ele>
        <time>2010-08-09T11:26:17Z</time>
      </trkpt>
      <trkpt lat="45.37765" lon="6.68962">
        <ele>2645.668295</ele>
        <time>2010-08-09T11:26:38Z</time>
      </trkpt>
      <trkpt lat="45.37764" lon="6.68956">
        <ele>2645.956812</ele>
        <time>2010-08-09T11:27:02Z</time>
      </trkpt>
      <trkpt lat="45.37768" lon="6.68951">
        <ele>2644.96007</ele>
        <time>2010-08-09T11:27:22Z</time>
      </trkpt>
      <trkpt lat="45.37766" lon="6.68945">
        <ele>2643.825088</ele>
        <time>2010-08-09T11:27:49Z</time>
      </trkpt>
      <trkpt lat="45.37765" lon="6.68944">
        <ele>2638.789207</ele>
        <time>2010-08-09T11:28:11Z</time>
      </trkpt>
      <trkpt lat="45.37762" lon="6.68941">
        <ele>2634.36915</ele>
        <time>2010-08-09T11:28:34Z</time>
      </trkpt>
      <trkpt lat="45.37763" lon="6.68937">
        <ele>2627.706604</ele>
        <time>2010-08-09T11:28:54Z</time>
      </trkpt>
      <trkpt lat="45.37761" lon="6.68932">
        <ele>2623.122903</ele>
        <time>2010-08-09T11:29:14Z</time>
      </trkpt>
      <trkpt lat="45.37761" lon="6.68929">
        <ele>2618.649233</ele>
        <time>2010-08-09T11:30:34Z</time>
      </trkpt>
      <trkpt lat="45.37766" lon="6.68928">
        <ele>2615.805022</ele>
        <time>2010-08-09T11:31:00Z</time>
      </trkpt>
      <trkpt lat="45.37785" lon="6.689">
        <ele>2615.434104</ele>
        <time>2010-08-09T11:31:20Z</time>
      </trkpt>
      <trkpt lat="45.37781" lon="6.68896">
        <ele>2615.146325</ele>
        <time>2010-08-09T11:31:40Z</time>
      </trkpt>
      <trkpt lat="45.3778" lon="6.68888">
        <ele>2613.23191</ele>
        <time>2010-08-09T11:32:00Z</time>
      </trkpt>
      <trkpt lat="45.37783" lon="6.6888">
        <ele>2609.868603</ele>
        <time>2010-08-09T11:32:20Z</time>
      </trkpt>
      <trkpt lat="45.37786" lon="6.68874">
        <ele>2606.668936</ele>
        <time>2010-08-09T11:32:40Z</time>
      </trkpt>
      <trkpt lat="45.3779" lon="6.68871">
        <ele>2600.82821</ele>
        <time>2010-08-09T11:33:00Z</time>
      </trkpt>
      <trkpt lat="45.37794" lon="6.68874">
        <ele>2595.314748</ele>
        <time>2010-08-09T11:33:20Z</time>
      </trkpt>
      <trkpt lat="45.37799" lon="6.68869">
        <ele>2594.332173</ele>
        <time>2010-08-09T11:33:40Z</time>
      </trkpt>
      <trkpt lat="45.37824" lon="6.68874">
        <ele>2577.701641</ele>
        <time>2010-08-09T11:34:00Z</time>
      </trkpt>
      <trkpt lat="45.37842" lon="6.68866">
        <ele>2573.714235</ele>
        <time>2010-08-09T11:34:20Z</time>
      </trkpt>
      <trkpt lat="45.37839" lon="6.68855">
        <ele>2573.729126</ele>
        <time>2010-08-09T11:34:40Z</time>
      </trkpt>
      <trkpt lat="45.37837" lon="6.6885">
        <ele>2571.964234</ele>
        <time>2010-08-09T11:35:01Z</time>
      </trkpt>
      <trkpt lat="45.37843" lon="6.68845">
        <ele>2566.685814</ele>
        <time>2010-08-09T11:35:21Z</time>
      </trkpt>
      <trkpt lat="45.37849" lon="6.6884">
        <ele>2560.695642</ele>
        <time>2010-08-09T11:35:41Z</time>
      </trkpt>
      <trkpt lat="45.37855" lon="6.68838">
        <ele>2545.715048</ele>
        <time>2010-08-09T11:36:01Z</time>
      </trkpt>
      <trkpt lat="45.37866" lon="6.68827">
        <ele>2535.062334</ele>
        <time>2010-08-09T11:36:21Z</time>
      </trkpt>
      <trkpt lat="45.37861" lon="6.6882">
        <ele>2534.596788</ele>
        <time>2010-08-09T11:36:41Z</time>
      </trkpt>
      <trkpt lat="45.37859" lon="6.68801">
        <ele>2525.58266</ele>
        <time>2010-08-09T11:37:01Z</time>
      </trkpt>
      <trkpt lat="45.37871" lon="6.68799">
        <ele>2523.35734</ele>
        <time>2010-08-09T11:37:21Z</time>
      </trkpt>
      <trkpt lat="45.37872" lon="6.68792">
        <ele>2518.638304</ele>
        <time>2010-08-09T11:37:41Z</time>
      </trkpt>
      <trkpt lat="45.37864" lon="6.68766">
        <ele>2521.21337</ele>
        <time>2010-08-09T11:38:01Z</time>
      </trkpt>
      <trkpt lat="45.37869" lon="6.68768">
        <ele>2512.813458</ele>
        <time>2010-08-09T11:38:21Z</time>
      </trkpt>
      <trkpt lat="45.37872" lon="6.68751">
        <ele>2515.29475</ele>
        <time>2010-08-09T11:38:41Z</time>
      </trkpt>
      <trkpt lat="45.37872" lon="6.68739">
        <ele>2509.536788</ele>
        <time>2010-08-09T11:39:01Z</time>
      </trkpt>
      <trkpt lat="45.3788" lon="6.68732">
        <ele>2502.001959</ele>
        <time>2010-08-09T11:39:21Z</time>
      </trkpt>
      <trkpt lat="45.37877" lon="6.68733">
        <ele>2498.524926</ele>
        <time>2010-08-09T11:39:44Z</time>
      </trkpt>
      <trkpt lat="45.37861" lon="6.68719">
        <ele>2491.885706</ele>
        <time>2010-08-09T11:40:04Z</time>
      </trkpt>
      <trkpt lat="45.37858" lon="6.687">
        <ele>2485.676442</ele>
        <time>2010-08-09T11:40:24Z</time>
      </trkpt>
      <trkpt lat="45.37857" lon="6.68688">
        <ele>2487.033229</ele>
        <time>2010-08-09T11:40:44Z</time>
      </trkpt>
      <trkpt lat="45.37852" lon="6.68687">
        <ele>2483.378499</ele>
        <time>2010-08-09T11:41:04Z</time>
      </trkpt>
      <trkpt lat="45.37836" lon="6.68664">
        <ele>2476.15277</ele>
        <time>2010-08-09T11:41:24Z</time>
      </trkpt>
      <trkpt lat="45.37837" lon="6.68652">
        <ele>2473.309625</ele>
        <time>2010-08-09T11:41:44Z</time>
      </trkpt>
      <trkpt lat="45.37848" lon="6.68641">
        <ele>2469.785894</ele>
        <time>2010-08-09T11:42:04Z</time>
      </trkpt>
      <trkpt lat="45.37866" lon="6.68652">
        <ele>2452.782044</ele>
        <time>2010-08-09T11:42:24Z</time>
      </trkpt>
      <trkpt lat="45.37879" lon="6.68648">
        <ele>2451.186752</ele>
        <time>2010-08-09T11:42:44Z</time>
      </trkpt>
      <trkpt lat="45.37876" lon="6.68639">
        <ele>2450.571867</ele>
        <time>2010-08-09T11:43:04Z</time>
      </trkpt>
      <trkpt lat="45.37873" lon="6.68624">
        <ele>2446.729261</ele>
        <time>2010-08-09T11:43:24Z</time>
      </trkpt>
      <trkpt lat="45.37869" lon="6.68614">
        <ele>2444.690872</ele>
        <time>2010-08-09T11:43:44Z</time>
      </trkpt>
      <trkpt lat="45.37859" lon="6.68599">
        <ele>2434.428308</ele>
        <time>2010-08-09T11:44:04Z</time>
      </trkpt>
      <trkpt lat="45.37845" lon="6.68579">
        <ele>2431.006898</ele>
        <time>2010-08-09T11:44:24Z</time>
      </trkpt>
      <trkpt lat="45.37838" lon="6.68565">
        <ele>2426.492063</ele>
        <time>2010-08-09T11:44:44Z</time>
      </trkpt>
      <trkpt lat="45.3785" lon="6.6855">
        <ele>2422.737219</ele>
        <time>2010-08-09T11:45:04Z</time>
      </trkpt>
      <trkpt lat="45.37837" lon="6.68542">
        <ele>2408.708979</ele>
        <time>2010-08-09T11:45:24Z</time>
      </trkpt>
      <trkpt lat="45.3784" lon="6.68537">
        <ele>2400.569549</ele>
        <time>2010-08-09T11:45:44Z</time>
      </trkpt>
      <trkpt lat="45.37836" lon="6.6853">
        <ele>2399.406573</ele>
        <time>2010-08-09T11:46:04Z</time>
      </trkpt>
      <trkpt lat="45.37839" lon="6.68519">
        <ele>2399.410614</ele>
        <time>2010-08-09T11:46:24Z</time>
      </trkpt>
      <trkpt lat="45.37833" lon="6.6851">
        <ele>2389.59944</ele>
        <time>2010-08-09T11:46:44Z</time>
      </trkpt>
      <trkpt lat="45.37827" lon="6.68486">
        <ele>2392.271133</ele>
        <time>2010-08-09T11:47:04Z</time>
      </trkpt>
      <trkpt lat="45.37829" lon="6.68482">
        <ele>2384.213494</ele>
        <time>2010-08-09T11:47:24Z</time>
      </trkpt>
      <trkpt lat="45.37829" lon="6.68477">
        <ele>2380.355852</ele>
        <time>2010-08-09T11:47:47Z</time>
      </trkpt>
      <trkpt lat="45.37827" lon="6.68475">
        <ele>2375.238226</ele>
        <time>2010-08-09T11:48:07Z</time>
      </trkpt>
      <trkpt lat="45.37827" lon="6.68468">
        <ele>2374.03587</ele>
        <time>2010-08-09T11:48:27Z</time>
      </trkpt>
      <trkpt lat="45.37828" lon="6.6846">
        <ele>2370.028817</ele>
        <time>2010-08-09T11:48:47Z</time>
      </trkpt>
      <trkpt lat="45.37827" lon="6.68457">
        <ele>2363.434135</ele>
        <time>2010-08-09T11:49:07Z</time>
      </trkpt>
      <trkpt lat="45.37829" lon="6.68437">
        <ele>2352.890071</ele>
        <time>2010-08-09T11:49:27Z</time>
      </trkpt>
      <trkpt lat="45.37833" lon="6.68394">
        <ele>2333.827366</ele>
        <time>2010-08-09T11:49:47Z</time>
      </trkpt>
      <trkpt lat="45.37839" lon="6.68355">
        <ele>2330.63768</ele>
        <time>2010-08-09T11:50:07Z</time>
      </trkpt>
      <trkpt lat="45.37839" lon="6.68307">
        <ele>2338.148259</ele>
        <time>2010-08-09T11:50:27Z</time>
      </trkpt>
      <trkpt lat="45.37836" lon="6.6827">
        <ele>2348.487676</ele>
        <time>2010-08-09T11:50:47Z</time>
      </trkpt>
      <trkpt lat="45.37838" lon="6.68259">
        <ele>2344.947302</ele>
        <time>2010-08-09T11:51:07Z</time>
      </trkpt>
      <trkpt lat="45.37845" lon="6.68255">
        <ele>2336.946208</ele>
        <time>2010-08-09T11:51:27Z</time>
      </trkpt>
      <trkpt lat="45.37846" lon="6.68234">
        <ele>2332.026077</ele>
        <time>2010-08-09T11:51:47Z</time>
      </trkpt>
      <trkpt lat="45.37844" lon="6.68211">
        <ele>2329.81485</ele>
        <time>2010-08-09T11:52:07Z</time>
      </trkpt>
      <trkpt lat="45.37841" lon="6.68201">
        <ele>2326.299824</ele>
        <time>2010-08-09T11:52:27Z</time>
      </trkpt>
      <trkpt lat="45.37836" lon="6.68167">
        <ele>2319.164272</ele>
        <time>2010-08-09T11:52:47Z</time>
      </trkpt>
      <trkpt lat="45.37831" lon="6.68162">
        <ele>2291.838645</ele>
        <time>2010-08-09T11:53:07Z</time>
      </trkpt>
      <trkpt lat="45.37832" lon="6.6816">
        <ele>2298.818083</ele>
        <time>2010-08-09T11:53:27Z</time>
      </trkpt>
      <trkpt lat="45.37856" lon="6.68148">
        <ele>2302.401336</ele>
        <time>2010-08-09T11:53:47Z</time>
      </trkpt>
      <trkpt lat="45.37885" lon="6.68127">
        <ele>2318.153834</ele>
        <time>2010-08-09T11:54:07Z</time>
      </trkpt>
      <trkpt lat="45.37911" lon="6.68114">
        <ele>2313.843347</ele>
        <time>2010-08-09T11:54:27Z</time>
      </trkpt>
      <trkpt lat="45.37933" lon="6.681">
        <ele>2312.30943</ele>
        <time>2010-08-09T11:54:47Z</time>
      </trkpt>
      <trkpt lat="45.37956" lon="6.68084">
        <ele>2309.216916</ele>
        <time>2010-08-09T11:55:07Z</time>
      </trkpt>
      <trkpt lat="45.37975" lon="6.68063">
        <ele>2307.232229</ele>
        <time>2010-08-09T11:55:27Z</time>
      </trkpt>
      <trkpt lat="45.37986" lon="6.68055">
        <ele>2300.356387</ele>
        <time>2010-08-09T11:55:47Z</time>
      </trkpt>
      <trkpt lat="45.37993" lon="6.68055">
        <ele>2302.548312</ele>
        <time>2010-08-09T11:56:07Z</time>
      </trkpt>
      <trkpt lat="45.37998" lon="6.68054">
        <ele>2300.320284</ele>
        <time>2010-08-09T11:56:29Z</time>
      </trkpt>
      <trkpt lat="45.38025" lon="6.68039">
        <ele>2285.297664</ele>
        <time>2010-08-09T11:56:49Z</time>
      </trkpt>
      <trkpt lat="45.38044" lon="6.68011">
        <ele>2282.823069</ele>
        <time>2010-08-09T11:57:09Z</time>
      </trkpt>
      <trkpt lat="45.38047" lon="6.67992">
        <ele>2282.32343</ele>
        <time>2010-08-09T11:57:29Z</time>
      </trkpt>
      <trkpt lat="45.38049" lon="6.67987">
        <ele>2279.903733</ele>
        <time>2010-08-09T11:57:52Z</time>
      </trkpt>
      <trkpt lat="45.38052" lon="6.67981">
        <ele>2278.811749</ele>
        <time>2010-08-09T11:58:12Z</time>
      </trkpt>
      <trkpt lat="45.3806" lon="6.67976">
        <ele>2265.024151</ele>
        <time>2010-08-09T11:58:32Z</time>
      </trkpt>
      <trkpt lat="45.38078" lon="6.67952">
        <ele>2258.552544</ele>
        <time>2010-08-09T11:58:52Z</time>
      </trkpt>
      <trkpt lat="45.38072" lon="6.67947">
        <ele>2251.107848</ele>
        <time>2010-08-09T11:59:12Z</time>
      </trkpt>
      <trkpt lat="45.38068" lon="6.67934">
        <ele>2245.308343</ele>
        <time>2010-08-09T11:59:32Z</time>
      </trkpt>
      <trkpt lat="45.38072" lon="6.67917">
        <ele>2229.319459</ele>
        <time>2010-08-09T11:59:52Z</time>
      </trkpt>
      <trkpt lat="45.38088" lon="6.67889">
        <ele>2221.876996</ele>
        <time>2010-08-09T12:00:12Z</time>
      </trkpt>
      <trkpt lat="45.38094" lon="6.67874">
        <ele>2223.772217</ele>
        <time>2010-08-09T12:00:32Z</time>
      </trkpt>
      <trkpt lat="45.381" lon="6.67865">
        <ele>2227.485322</ele>
        <time>2010-08-09T12:00:52Z</time>
      </trkpt>
      <trkpt lat="45.38104" lon="6.67865">
        <ele>2223.929695</ele>
        <time>2010-08-09T12:01:12Z</time>
      </trkpt>
      <trkpt lat="45.38115" lon="6.67861">
        <ele>2218.078667</ele>
        <time>2010-08-09T12:01:32Z</time>
      </trkpt>
      <trkpt lat="45.38118" lon="6.67858">
        <ele>2208.626153</ele>
        <time>2010-08-09T12:01:52Z</time>
      </trkpt>
      <trkpt lat="45.38122" lon="6.67852">
        <ele>2208.260246</ele>
        <time>2010-08-09T12:02:12Z</time>
      </trkpt>
      <trkpt lat="45.38124" lon="6.67846">
        <ele>2206.456577</ele>
        <time>2010-08-09T12:02:35Z</time>
      </trkpt>
      <trkpt lat="45.38124" lon="6.6784">
        <ele>2202.517524</ele>
        <time>2010-08-09T12:02:56Z</time>
      </trkpt>
      <trkpt lat="45.38124" lon="6.67832">
        <ele>2201.315621</ele>
        <time>2010-08-09T12:03:16Z</time>
      </trkpt>
      <trkpt lat="45.38115" lon="6.67824">
        <ele>2192.269799</ele>
        <time>2010-08-09T12:03:36Z</time>
      </trkpt>
      <trkpt lat="45.38106" lon="6.67812">
        <ele>2177.245431</ele>
        <time>2010-08-09T12:03:56Z</time>
      </trkpt>
      <trkpt lat="45.3811" lon="6.67802">
        <ele>2170.203358</ele>
        <time>2010-08-09T12:04:16Z</time>
      </trkpt>
      <trkpt lat="45.38104" lon="6.67777">
        <ele>2167.157014</ele>
        <time>2010-08-09T12:04:36Z</time>
      </trkpt>
      <trkpt lat="45.38096" lon="6.67747">
        <ele>2157.420409</ele>
        <time>2010-08-09T12:04:56Z</time>
      </trkpt>
      <trkpt lat="45.38096" lon="6.67741">
        <ele>2158.421459</ele>
        <time>2010-08-09T12:05:18Z</time>
      </trkpt>
      <trkpt lat="45.38081" lon="6.67707">
        <ele>2154.07431</ele>
        <time>2010-08-09T12:05:38Z</time>
      </trkpt>
      <trkpt lat="45.38074" lon="6.67678">
        <ele>2146.459144</ele>
        <time>2010-08-09T12:05:58Z</time>
      </trkpt>
      <trkpt lat="45.38049" lon="6.6767">
        <ele>2143.742261</ele>
        <time>2010-08-09T12:06:18Z</time>
      </trkpt>
      <trkpt lat="45.38043" lon="6.67664">
        <ele>2145.451878</ele>
        <time>2010-08-09T12:06:38Z</time>
      </trkpt>
      <trkpt lat="45.38045" lon="6.67653">
        <ele>2144.033425</ele>
        <time>2010-08-09T12:06:58Z</time>
      </trkpt>
      <trkpt lat="45.38038" lon="6.67648">
        <ele>2141.596464</ele>
        <time>2010-08-09T12:07:18Z</time>
      </trkpt>
      <trkpt lat="45.38018" lon="6.67622">
        <ele>2129.144975</ele>
        <time>2010-08-09T12:07:38Z</time>
      </trkpt>
      <trkpt lat="45.38007" lon="6.67591">
        <ele>2139.194179</ele>
        <time>2010-08-09T12:07:58Z</time>
      </trkpt>
      <trkpt lat="45.38003" lon="6.67574">
        <ele>2138.076087</ele>
        <time>2010-08-09T12:08:18Z</time>
      </trkpt>
      <trkpt lat="45.37997" lon="6.67563">
        <ele>2136.640367</ele>
        <time>2010-08-09T12:08:38Z</time>
      </trkpt>
      <trkpt lat="45.37998" lon="6.67537">
        <ele>2125.757387</ele>
        <time>2010-08-09T12:08:58Z</time>
      </trkpt>
      <trkpt lat="45.38" lon="6.6753">
        <ele>2128.812253</ele>
        <time>2010-08-09T12:09:18Z</time>
      </trkpt>
      <trkpt lat="45.37997" lon="6.67532">
        <ele>2124.007227</ele>
        <time>2010-08-09T12:09:38Z</time>
      </trkpt>
      <trkpt lat="45.37994" lon="6.67545">
        <ele>2119.869546</ele>
        <time>2010-08-09T12:09:58Z</time>
      </trkpt>
      <trkpt lat="45.37964" lon="6.67532">
        <ele>2126.00582</ele>
        <time>2010-08-09T12:10:18Z</time>
      </trkpt>
      <trkpt lat="45.37944" lon="6.67535">
        <ele>2114.051678</ele>
        <time>2010-08-09T12:10:38Z</time>
      </trkpt>
      <trkpt lat="45.37938" lon="6.67502">
        <ele>2111.213934</ele>
        <time>2010-08-09T12:10:58Z</time>
      </trkpt>
      <trkpt lat="45.37942" lon="6.67484">
        <ele>2122.086294</ele>
        <time>2010-08-09T12:11:18Z</time>
      </trkpt>
      <trkpt lat="45.3795" lon="6.67473">
        <ele>2131.38386</ele>
        <time>2010-08-09T12:11:38Z</time>
      </trkpt>
      <trkpt lat="45.37939" lon="6.67459">
        <ele>2123.297423</ele>
        <time>2010-08-09T12:11:58Z</time>
      </trkpt>
      <trkpt lat="45.37941" lon="6.67448">
        <ele>2116.939099</ele>
        <time>2010-08-09T12:12:18Z</time>
      </trkpt>
      <trkpt lat="45.3794" lon="6.67436">
        <ele>2116.190222</ele>
        <time>2010-08-09T12:12:38Z</time>
      </trkpt>
      <trkpt lat="45.3794" lon="6.6743">
        <ele>2115.070258</ele>
        <time>2010-08-09T12:13:06Z</time>
      </trkpt>
      <trkpt lat="45.3794" lon="6.67417">
        <ele>2113.542116</ele>
        <time>2010-08-09T12:13:26Z</time>
      </trkpt>
      <trkpt lat="45.37921" lon="6.67389">
        <ele>2104.554721</ele>
        <time>2010-08-09T12:13:46Z</time>
      </trkpt>
      <trkpt lat="45.37913" lon="6.6737">
        <ele>2092.653683</ele>
        <time>2010-08-09T12:14:06Z</time>
      </trkpt>
      <trkpt lat="45.37899" lon="6.67356">
        <ele>2096.68966</ele>
        <time>2010-08-09T12:14:26Z</time>
      </trkpt>
      <trkpt lat="45.37891" lon="6.67332">
        <ele>2086.583402</ele>
        <time>2010-08-09T12:14:46Z</time>
      </trkpt>
      <trkpt lat="45.37892" lon="6.67319">
        <ele>2090.693072</ele>
        <time>2010-08-09T12:15:06Z</time>
      </trkpt>
      <trkpt lat="45.37876" lon="6.67295">
        <ele>2084.812153</ele>
        <time>2010-08-09T12:15:26Z</time>
      </trkpt>
      <trkpt lat="45.37871" lon="6.67282">
        <ele>2076.180628</ele>
        <time>2010-08-09T12:15:46Z</time>
      </trkpt>
      <trkpt lat="45.37868" lon="6.67259">
        <ele>2073.245635</ele>
        <time>2010-08-09T12:16:06Z</time>
      </trkpt>
      <trkpt lat="45.37869" lon="6.67242">
        <ele>2073.594041</ele>
        <time>2010-08-09T12:16:26Z</time>
      </trkpt>
      <trkpt lat="45.37884" lon="6.67251">
        <ele>2071.352556</ele>
        <time>2010-08-09T12:16:46Z</time>
      </trkpt>
      <trkpt lat="45.37898" lon="6.67264">
        <ele>2066.618743</ele>
        <time>2010-08-09T12:17:06Z</time>
      </trkpt>
      <trkpt lat="45.37892" lon="6.67254">
        <ele>2061.666972</ele>
        <time>2010-08-09T12:17:26Z</time>
      </trkpt>
      <trkpt lat="45.37879" lon="6.67217">
        <ele>2051.45356</ele>
        <time>2010-08-09T12:17:46Z</time>
      </trkpt>
      <trkpt lat="45.3788" lon="6.67207">
        <ele>2058.559556</ele>
        <time>2010-08-09T12:18:06Z</time>
      </trkpt>
      <trkpt lat="45.3787" lon="6.67182">
        <ele>2053.365506</ele>
        <time>2010-08-09T12:18:26Z</time>
      </trkpt>
      <trkpt lat="45.37855" lon="6.67156">
        <ele>2039.562866</ele>
        <time>2010-08-09T12:18:46Z</time>
      </trkpt>
      <trkpt lat="45.3784" lon="6.67144">
        <ele>2036.619659</ele>
        <time>2010-08-09T12:19:06Z</time>
      </trkpt>
      <trkpt lat="45.37826" lon="6.67142">
        <ele>2041.404654</ele>
        <time>2010-08-09T12:19:26Z</time>
      </trkpt>
      <trkpt lat="45.37806" lon="6.67136">
        <ele>2046.653699</ele>
        <time>2010-08-09T12:19:46Z</time>
      </trkpt>
      <trkpt lat="45.3778" lon="6.67127">
        <ele>2044.540474</ele>
        <time>2010-08-09T12:20:06Z</time>
      </trkpt>
      <trkpt lat="45.37764" lon="6.67124">
        <ele>2037.940458</ele>
        <time>2010-08-09T12:20:26Z</time>
      </trkpt>
      <trkpt lat="45.37746" lon="6.67116">
        <ele>2038.033066</ele>
        <time>2010-08-09T12:20:46Z</time>
      </trkpt>
      <trkpt lat="45.37729" lon="6.67096">
        <ele>2027.44375</ele>
        <time>2010-08-09T12:21:06Z</time>
      </trkpt>
      <trkpt lat="45.37739" lon="6.67071">
        <ele>2038.676711</ele>
        <time>2010-08-09T12:21:26Z</time>
      </trkpt>
      <trkpt lat="45.3775" lon="6.6707">
        <ele>2040.747271</ele>
        <time>2010-08-09T12:21:46Z</time>
      </trkpt>
      <trkpt lat="45.37755" lon="6.67066">
        <ele>2041.256454</ele>
        <time>2010-08-09T12:22:21Z</time>
      </trkpt>
      <trkpt lat="45.37746" lon="6.67046">
        <ele>2031.381788</ele>
        <time>2010-08-09T12:22:41Z</time>
      </trkpt>
      <trkpt lat="45.37725" lon="6.67028">
        <ele>2017.397055</ele>
        <time>2010-08-09T12:23:01Z</time>
      </trkpt>
      <trkpt lat="45.37744" lon="6.67009">
        <ele>2012.676377</ele>
        <time>2010-08-09T12:23:21Z</time>
      </trkpt>
      <trkpt lat="45.37767" lon="6.67001">
        <ele>2025.043437</ele>
        <time>2010-08-09T12:23:41Z</time>
      </trkpt>
      <trkpt lat="45.37777" lon="6.66996">
        <ele>2022.62694</ele>
        <time>2010-08-09T12:24:01Z</time>
      </trkpt>
      <trkpt lat="45.37777" lon="6.6699">
        <ele>2008.740813</ele>
        <time>2010-08-09T12:24:21Z</time>
      </trkpt>
      <trkpt lat="45.37811" lon="6.66995">
        <ele>2013.430926</ele>
        <time>2010-08-09T12:24:41Z</time>
      </trkpt>
      <trkpt lat="45.37838" lon="6.66995">
        <ele>2007.14669</ele>
        <time>2010-08-09T12:25:01Z</time>
      </trkpt>
      <trkpt lat="45.37853" lon="6.6697">
        <ele>2002.755516</ele>
        <time>2010-08-09T12:25:21Z</time>
      </trkpt>
      <trkpt lat="45.37862" lon="6.66979">
        <ele>1994.107886</ele>
        <time>2010-08-09T12:25:41Z</time>
      </trkpt>
      <trkpt lat="45.37882" lon="6.66995">
        <ele>1992.426199</ele>
        <time>2010-08-09T12:26:01Z</time>
      </trkpt>
      <trkpt lat="45.37908" lon="6.66999">
        <ele>1991.298932</ele>
        <time>2010-08-09T12:26:21Z</time>
      </trkpt>
      <trkpt lat="45.37931" lon="6.67004">
        <ele>1988.8973</ele>
        <time>2010-08-09T12:26:41Z</time>
      </trkpt>
      <trkpt lat="45.3795" lon="6.67019">
        <ele>1980.689148</ele>
        <time>2010-08-09T12:27:01Z</time>
      </trkpt>
      <trkpt lat="45.37965" lon="6.67031">
        <ele>1970.866103</ele>
        <time>2010-08-09T12:27:21Z</time>
      </trkpt>
      <trkpt lat="45.37995" lon="6.67046">
        <ele>1968.423012</ele>
        <time>2010-08-09T12:27:41Z</time>
      </trkpt>
      <trkpt lat="45.37999" lon="6.67012">
        <ele>1964.127197</ele>
        <time>2010-08-09T12:28:01Z</time>
      </trkpt>
      <trkpt lat="45.38021" lon="6.66993">
        <ele>1970.806948</ele>
        <time>2010-08-09T12:28:21Z</time>
      </trkpt>
      <trkpt lat="45.38044" lon="6.66984">
        <ele>1963.184392</ele>
        <time>2010-08-09T12:28:41Z</time>
      </trkpt>
      <trkpt lat="45.38073" lon="6.66975">
        <ele>1956.344483</ele>
        <time>2010-08-09T12:29:01Z</time>
      </trkpt>
      <trkpt lat="45.38096" lon="6.66984">
        <ele>1951.999663</ele>
        <time>2010-08-09T12:29:21Z</time>
      </trkpt>
      <trkpt lat="45.38104" lon="6.66984">
        <ele>1954.903469</ele>
        <time>2010-08-09T12:29:41Z</time>
      </trkpt>
      <trkpt lat="45.38132" lon="6.66996">
        <ele>1951.490417</ele>
        <time>2010-08-09T12:30:01Z</time>
      </trkpt>
      <trkpt lat="45.38153" lon="6.67019">
        <ele>1946.701285</ele>
        <time>2010-08-09T12:30:21Z</time>
      </trkpt>
      <trkpt lat="45.38164" lon="6.67038">
        <ele>1940.84232</ele>
        <time>2010-08-09T12:30:41Z</time>
      </trkpt>
      <trkpt lat="45.38178" lon="6.67064">
        <ele>1938.334333</ele>
        <time>2010-08-09T12:31:01Z</time>
      </trkpt>
      <trkpt lat="45.38191" lon="6.67082">
        <ele>1938.141567</ele>
        <time>2010-08-09T12:31:21Z</time>
      </trkpt>
      <trkpt lat="45.3821" lon="6.67108">
        <ele>1939.139574</ele>
        <time>2010-08-09T12:31:41Z</time>
      </trkpt>
      <trkpt lat="45.38223" lon="6.6711">
        <ele>1941.48429</ele>
        <time>2010-08-09T12:32:01Z</time>
      </trkpt>
      <trkpt lat="45.38244" lon="6.67124">
        <ele>1928.98169</ele>
        <time>2010-08-09T12:32:21Z</time>
      </trkpt>
      <trkpt lat="45.38241" lon="6.67126">
        <ele>1925.504233</ele>
        <time>2010-08-09T12:32:41Z</time>
      </trkpt>
      <trkpt lat="45.38243" lon="6.67132">
        <ele>1928.061843</ele>
        <time>2010-08-09T12:33:01Z</time>
      </trkpt>
      <trkpt lat="45.38242" lon="6.67136">
        <ele>1924.064162</ele>
        <time>2010-08-09T12:33:47Z</time>
      </trkpt>
      <trkpt lat="45.38261" lon="6.67144">
        <ele>1923.905906</ele>
        <time>2010-08-09T12:34:07Z</time>
      </trkpt>
      <trkpt lat="45.38285" lon="6.67165">
        <ele>1931.051663</ele>
        <time>2010-08-09T12:34:27Z</time>
      </trkpt>
      <trkpt lat="45.38306" lon="6.67181">
        <ele>1927.880954</ele>
        <time>2010-08-09T12:34:47Z</time>
      </trkpt>
      <trkpt lat="45.38335" lon="6.67186">
        <ele>1931.887566</ele>
        <time>2010-08-09T12:35:07Z</time>
      </trkpt>
      <trkpt lat="45.38343" lon="6.67186">
        <ele>1942.550682</ele>
        <time>2010-08-09T12:35:27Z</time>
      </trkpt>
      <trkpt lat="45.38366" lon="6.6721">
        <ele>1935.670041</ele>
        <time>2010-08-09T12:35:47Z</time>
      </trkpt>
      <trkpt lat="45.38383" lon="6.67234">
        <ele>1932.33068</ele>
        <time>2010-08-09T12:36:07Z</time>
      </trkpt>
      <trkpt lat="45.38404" lon="6.67266">
        <ele>1924.51633</ele>
        <time>2010-08-09T12:36:27Z</time>
      </trkpt>
      <trkpt lat="45.38418" lon="6.67254">
        <ele>1928.070887</ele>
        <time>2010-08-09T12:36:47Z</time>
      </trkpt>
      <trkpt lat="45.3844" lon="6.67239">
        <ele>1931.398774</ele>
        <time>2010-08-09T12:37:07Z</time>
      </trkpt>
      <trkpt lat="45.38467" lon="6.67234">
        <ele>1927.677673</ele>
        <time>2010-08-09T12:37:27Z</time>
      </trkpt>
      <trkpt lat="45.38489" lon="6.67226">
        <ele>1919.440848</ele>
        <time>2010-08-09T12:37:47Z</time>
      </trkpt>
      <trkpt lat="45.38509" lon="6.67221">
        <ele>1919.16512</ele>
        <time>2010-08-09T12:38:07Z</time>
      </trkpt>
      <trkpt lat="45.38533" lon="6.6722">
        <ele>1907.122503</ele>
        <time>2010-08-09T12:38:27Z</time>
      </trkpt>
      <trkpt lat="45.38549" lon="6.67222">
        <ele>1908.717439</ele>
        <time>2010-08-09T12:38:47Z</time>
      </trkpt>
      <trkpt lat="45.38575" lon="6.67228">
        <ele>1911.369031</ele>
        <time>2010-08-09T12:39:07Z</time>
      </trkpt>
      <trkpt lat="45.38597" lon="6.6724">
        <ele>1912.197327</ele>
        <time>2010-08-09T12:39:27Z</time>
      </trkpt>
      <trkpt lat="45.38625" lon="6.67255">
        <ele>1899.78212</ele>
        <time>2010-08-09T12:39:47Z</time>
      </trkpt>
      <trkpt lat="45.38647" lon="6.67244">
        <ele>1902.027909</ele>
        <time>2010-08-09T12:40:07Z</time>
      </trkpt>
      <trkpt lat="45.38672" lon="6.67231">
        <ele>1896.298617</ele>
        <time>2010-08-09T12:40:27Z</time>
      </trkpt>
      <trkpt lat="45.38695" lon="6.67234">
        <ele>1884.50156</ele>
        <time>2010-08-09T12:40:47Z</time>
      </trkpt>
      <trkpt lat="45.38725" lon="6.67236">
        <ele>1884.051577</ele>
        <time>2010-08-09T12:41:07Z</time>
      </trkpt>
      <trkpt lat="45.3875" lon="6.67231">
        <ele>1888.06229</ele>
        <time>2010-08-09T12:41:27Z</time>
      </trkpt>
      <trkpt lat="45.38767" lon="6.67205">
        <ele>1883.620124</ele>
        <time>2010-08-09T12:41:47Z</time>
      </trkpt>
      <trkpt lat="45.38798" lon="6.6721">
        <ele>1880.529229</ele>
        <time>2010-08-09T12:42:07Z</time>
      </trkpt>
      <trkpt lat="45.38823" lon="6.67232">
        <ele>1874.925568</ele>
        <time>2010-08-09T12:42:27Z</time>
      </trkpt>
      <trkpt lat="45.38837" lon="6.67253">
        <ele>1869.972117</ele>
        <time>2010-08-09T12:42:47Z</time>
      </trkpt>
      <trkpt lat="45.38866" lon="6.6727">
        <ele>1870.4206</ele>
        <time>2010-08-09T12:43:07Z</time>
      </trkpt>
      <trkpt lat="45.38892" lon="6.67273">
        <ele>1877.138865</ele>
        <time>2010-08-09T12:43:27Z</time>
      </trkpt>
      <trkpt lat="45.38914" lon="6.6727">
        <ele>1876.277429</ele>
        <time>2010-08-09T12:43:47Z</time>
      </trkpt>
      <trkpt lat="45.38941" lon="6.6727">
        <ele>1875.006483</ele>
        <time>2010-08-09T12:44:07Z</time>
      </trkpt>
      <trkpt lat="45.38971" lon="6.67279">
        <ele>1870.737681</ele>
        <time>2010-08-09T12:44:27Z</time>
      </trkpt>
      <trkpt lat="45.38985" lon="6.67279">
        <ele>1867.216267</ele>
        <time>2010-08-09T12:44:47Z</time>
      </trkpt>
      <trkpt lat="45.38999" lon="6.67315">
        <ele>1857.537712</ele>
        <time>2010-08-09T12:45:07Z</time>
      </trkpt>
      <trkpt lat="45.39023" lon="6.67341">
        <ele>1857.173104</ele>
        <time>2010-08-09T12:45:27Z</time>
      </trkpt>
      <trkpt lat="45.39045" lon="6.67344">
        <ele>1866.667838</ele>
        <time>2010-08-09T12:45:47Z</time>
      </trkpt>
      <trkpt lat="45.39072" lon="6.67332">
        <ele>1858.231872</ele>
        <time>2010-08-09T12:46:07Z</time>
      </trkpt>
      <trkpt lat="45.3908" lon="6.67334">
        <ele>1873.999559</ele>
        <time>2010-08-09T12:46:27Z</time>
      </trkpt>
      <trkpt lat="45.39114" lon="6.67327">
        <ele>1851.623231</ele>
        <time>2010-08-09T12:46:47Z</time>
      </trkpt>
      <trkpt lat="45.39147" lon="6.67338">
        <ele>1841.145147</ele>
        <time>2010-08-09T12:47:07Z</time>
      </trkpt>
      <trkpt lat="45.39173" lon="6.67353">
        <ele>1836.544856</ele>
        <time>2010-08-09T12:47:27Z</time>
      </trkpt>
      <trkpt lat="45.3919" lon="6.67351">
        <ele>1829.35889</ele>
        <time>2010-08-09T12:47:47Z</time>
      </trkpt>
      <trkpt lat="45.39205" lon="6.67349">
        <ele>1827.165913</ele>
        <time>2010-08-09T12:48:07Z</time>
      </trkpt>
      <trkpt lat="45.39232" lon="6.6735">
        <ele>1823.78957</ele>
        <time>2010-08-09T12:48:27Z</time>
      </trkpt>
      <trkpt lat="45.39256" lon="6.67352">
        <ele>1835.3394</ele>
        <time>2010-08-09T12:48:47Z</time>
      </trkpt>
      <trkpt lat="45.3929" lon="6.6737">
        <ele>1818.223228</ele>
        <time>2010-08-09T12:49:07Z</time>
      </trkpt>
      <trkpt lat="45.39304" lon="6.67373">
        <ele>1831.942224</ele>
        <time>2010-08-09T12:49:27Z</time>
      </trkpt>
      <trkpt lat="45.39335" lon="6.67387">
        <ele>1815.250104</ele>
        <time>2010-08-09T12:49:47Z</time>
      </trkpt>
      <trkpt lat="45.39355" lon="6.674">
        <ele>1805.489497</ele>
        <time>2010-08-09T12:50:07Z</time>
      </trkpt>
      <trkpt lat="45.39377" lon="6.67407">
        <ele>1815.230514</ele>
        <time>2010-08-09T12:50:27Z</time>
      </trkpt>
      <trkpt lat="45.39413" lon="6.67428">
        <ele>1801.126273</ele>
        <time>2010-08-09T12:50:47Z</time>
      </trkpt>
      <trkpt lat="45.39427" lon="6.67434">
        <ele>1820.016205</ele>
        <time>2010-08-09T12:51:07Z</time>
      </trkpt>
      <trkpt lat="45.39449" lon="6.6744">
        <ele>1829.757546</ele>
        <time>2010-08-09T12:51:27Z</time>
      </trkpt>
      <trkpt lat="45.39468" lon="6.67451">
        <ele>1826.250975</ele>
        <time>2010-08-09T12:51:47Z</time>
      </trkpt>
      <trkpt lat="45.3949" lon="6.67455">
        <ele>1831.601006</ele>
        <time>2010-08-09T12:52:07Z</time>
      </trkpt>
      <trkpt lat="45.3951" lon="6.67455">
        <ele>1825.238657</ele>
        <time>2010-08-09T12:52:27Z</time>
      </trkpt>
      <trkpt lat="45.39533" lon="6.67454">
        <ele>1831.671819</ele>
        <time>2010-08-09T12:52:47Z</time>
      </trkpt>
      <trkpt lat="45.39553" lon="6.67448">
        <ele>1834.930724</ele>
        <time>2010-08-09T12:53:07Z</time>
      </trkpt>
      <trkpt lat="45.39555" lon="6.67445">
        <ele>1877.323992</ele>
        <time>2010-08-09T12:53:27Z</time>
      </trkpt>
      <trkpt lat="45.39568" lon="6.67448">
        <ele>1881.779112</ele>
        <time>2010-08-09T12:53:47Z</time>
      </trkpt>
      <trkpt lat="45.39609" lon="6.67465">
        <ele>1873.12725</ele>
        <time>2010-08-09T12:54:07Z</time>
      </trkpt>
      <trkpt lat="45.39644" lon="6.67472">
        <ele>1850.983671</ele>
        <time>2010-08-09T12:54:27Z</time>
      </trkpt>
      <trkpt lat="45.39668" lon="6.67474">
        <ele>1856.897764</ele>
        <time>2010-08-09T12:54:47Z</time>
      </trkpt>
      <trkpt lat="45.39693" lon="6.67473">
        <ele>1852.003747</ele>
        <time>2010-08-09T12:55:07Z</time>
      </trkpt>
      <trkpt lat="45.39719" lon="6.67473">
        <ele>1822.289053</ele>
        <time>2010-08-09T12:55:39Z</time>
      </trkpt>
      <trkpt lat="45.39764" lon="6.67464">
        <ele>1829.645712</ele>
        <time>2010-08-09T12:55:59Z</time>
      </trkpt>
      <trkpt lat="45.39796" lon="6.67462">
        <ele>1831.805129</ele>
        <time>2010-08-09T12:56:19Z</time>
      </trkpt>
      <trkpt lat="45.39823" lon="6.67471">
        <ele>1838.869187</ele>
        <time>2010-08-09T12:56:39Z</time>
      </trkpt>
      <trkpt lat="45.3985" lon="6.67475">
        <ele>1839.257242</ele>
        <time>2010-08-09T12:56:59Z</time>
      </trkpt>
      <trkpt lat="45.39871" lon="6.67468">
        <ele>1833.912225</ele>
        <time>2010-08-09T12:57:19Z</time>
      </trkpt>
      <trkpt lat="45.39897" lon="6.67468">
        <ele>1836.16251</ele>
        <time>2010-08-09T12:57:39Z</time>
      </trkpt>
      <trkpt lat="45.39921" lon="6.67466">
        <ele>1834.689618</ele>
        <time>2010-08-09T12:57:59Z</time>
      </trkpt>
      <trkpt lat="45.39945" lon="6.6747">
        <ele>1833.639515</ele>
        <time>2010-08-09T12:58:19Z</time>
      </trkpt>
      <trkpt lat="45.39963" lon="6.67478">
        <ele>1827.835591</ele>
        <time>2010-08-09T12:58:39Z</time>
      </trkpt>
      <trkpt lat="45.39983" lon="6.67499">
        <ele>1837.052958</ele>
        <time>2010-08-09T12:58:59Z</time>
      </trkpt>
      <trkpt lat="45.39986" lon="6.67501">
        <ele>1841.488336</ele>
        <time>2010-08-09T12:59:19Z</time>
      </trkpt>
      <trkpt lat="45.39986" lon="6.67505">
        <ele>1845.961444</ele>
        <time>2010-08-09T12:59:48Z</time>
      </trkpt>
      <trkpt lat="45.39991" lon="6.67502">
        <ele>1843.65367</ele>
        <time>2010-08-09T13:02:45Z</time>
      </trkpt>
      <trkpt lat="45.40017" lon="6.67482">
        <ele>1837.536984</ele>
        <time>2010-08-09T13:03:05Z</time>
      </trkpt>
      <trkpt lat="45.40039" lon="6.67468">
        <ele>1831.005597</ele>
        <time>2010-08-09T13:03:25Z</time>
      </trkpt>
      <trkpt lat="45.40063" lon="6.67451">
        <ele>1825.735178</ele>
        <time>2010-08-09T13:03:45Z</time>
      </trkpt>
      <trkpt lat="45.40079" lon="6.67437">
        <ele>1822.810217</ele>
        <time>2010-08-09T13:04:05Z</time>
      </trkpt>
      <trkpt lat="45.40098" lon="6.67411">
        <ele>1824.038879</ele>
        <time>2010-08-09T13:04:25Z</time>
      </trkpt>
      <trkpt lat="45.40116" lon="6.67384">
        <ele>1819.533736</ele>
        <time>2010-08-09T13:04:45Z</time>
      </trkpt>
      <trkpt lat="45.40125" lon="6.67348">
        <ele>1810.111986</ele>
        <time>2010-08-09T13:05:05Z</time>
      </trkpt>
      <trkpt lat="45.40133" lon="6.67313">
        <ele>1804.369784</ele>
        <time>2010-08-09T13:05:25Z</time>
      </trkpt>
      <trkpt lat="45.40145" lon="6.67264">
        <ele>1805.518741</ele>
        <time>2010-08-09T13:05:45Z</time>
      </trkpt>
      <trkpt lat="45.40151" lon="6.67229">
        <ele>1802.581024</ele>
        <time>2010-08-09T13:06:05Z</time>
      </trkpt>
      <trkpt lat="45.40155" lon="6.67204">
        <ele>1808.025879</ele>
        <time>2010-08-09T13:06:25Z</time>
      </trkpt>
      <trkpt lat="45.40164" lon="6.67172">
        <ele>1803.871439</ele>
        <time>2010-08-09T13:06:45Z</time>
      </trkpt>
      <trkpt lat="45.40175" lon="6.67137">
        <ele>1805.918388</ele>
        <time>2010-08-09T13:07:05Z</time>
      </trkpt>
      <trkpt lat="45.40185" lon="6.67101">
        <ele>1803.640964</ele>
        <time>2010-08-09T13:07:25Z</time>
      </trkpt>
      <trkpt lat="45.40204" lon="6.67079">
        <ele>1798.068429</ele>
        <time>2010-08-09T13:07:45Z</time>
      </trkpt>
      <trkpt lat="45.40214" lon="6.67058">
        <ele>1793.884231</ele>
        <time>2010-08-09T13:08:05Z</time>
      </trkpt>
      <trkpt lat="45.4022" lon="6.67038">
        <ele>1802.585555</ele>
        <time>2010-08-09T13:08:25Z</time>
      </trkpt>
      <trkpt lat="45.40235" lon="6.6699">
        <ele>1788.180128</ele>
        <time>2010-08-09T13:08:45Z</time>
      </trkpt>
      <trkpt lat="45.40266" lon="6.66935">
        <ele>1801.746729</ele>
        <time>2010-08-09T13:09:05Z</time>
      </trkpt>
      <trkpt lat="45.40279" lon="6.66899">
        <ele>1796.695397</ele>
        <time>2010-08-09T13:09:25Z</time>
      </trkpt>
      <trkpt lat="45.40289" lon="6.66857">
        <ele>1810.293926</ele>
        <time>2010-08-09T13:09:45Z</time>
      </trkpt>
      <trkpt lat="45.40285" lon="6.66817">
        <ele>1807.69298</ele>
        <time>2010-08-09T13:10:05Z</time>
      </trkpt>
      <trkpt lat="45.40303" lon="6.66799">
        <ele>1807.373164</ele>
        <time>2010-08-09T13:10:25Z</time>
      </trkpt>
      <trkpt lat="45.40307" lon="6.6677">
        <ele>1802.627104</ele>
        <time>2010-08-09T13:10:45Z</time>
      </trkpt>
      <trkpt lat="45.40311" lon="6.66734">
        <ele>1802.480712</ele>
        <time>2010-08-09T13:11:05Z</time>
      </trkpt>
      <trkpt lat="45.40318" lon="6.6669">
        <ele>1799.671752</ele>
        <time>2010-08-09T13:11:25Z</time>
      </trkpt>
      <trkpt lat="45.40328" lon="6.66646">
        <ele>1801.13538</ele>
        <time>2010-08-09T13:11:45Z</time>
      </trkpt>
      <trkpt lat="45.40334" lon="6.66611">
        <ele>1801.716194</ele>
        <time>2010-08-09T13:12:05Z</time>
      </trkpt>
      <trkpt lat="45.4034" lon="6.6658">
        <ele>1813.201222</ele>
        <time>2010-08-09T13:12:25Z</time>
      </trkpt>
      <trkpt lat="45.40363" lon="6.66541">
        <ele>1817.875778</ele>
        <time>2010-08-09T13:12:45Z</time>
      </trkpt>
      <trkpt lat="45.40375" lon="6.6652">
        <ele>1810.903563</ele>
        <time>2010-08-09T13:13:05Z</time>
      </trkpt>
      <trkpt lat="45.40393" lon="6.66505">
        <ele>1811.444892</ele>
        <time>2010-08-09T13:13:25Z</time>
      </trkpt>
      <trkpt lat="45.40408" lon="6.66493">
        <ele>1810.710405</ele>
        <time>2010-08-09T13:13:45Z</time>
      </trkpt>
      <trkpt lat="45.40436" lon="6.66468">
        <ele>1807.120087</ele>
        <time>2010-08-09T13:14:05Z</time>
      </trkpt>
      <trkpt lat="45.40464" lon="6.66458">
        <ele>1808.023991</ele>
        <time>2010-08-09T13:14:25Z</time>
      </trkpt>
      <trkpt lat="45.40491" lon="6.66437">
        <ele>1796.823035</ele>
        <time>2010-08-09T13:14:45Z</time>
      </trkpt>
      <trkpt lat="45.40517" lon="6.66411">
        <ele>1791.712914</ele>
        <time>2010-08-09T13:15:05Z</time>
      </trkpt>
      <trkpt lat="45.40529" lon="6.66385">
        <ele>1781.581832</ele>
        <time>2010-08-09T13:15:25Z</time>
      </trkpt>
      <trkpt lat="45.40544" lon="6.66359">
        <ele>1793.415426</ele>
        <time>2010-08-09T13:15:45Z</time>
      </trkpt>
      <trkpt lat="45.40573" lon="6.66333">
        <ele>1776.978338</ele>
        <time>2010-08-09T13:16:05Z</time>
      </trkpt>
      <trkpt lat="45.40601" lon="6.66302">
        <ele>1784.324194</ele>
        <time>2010-08-09T13:16:25Z</time>
      </trkpt>
    </trkseg>
  </trk>
</gpx>